Observation data for JA Ranch on 05/14/2018      Previous  Date  Next       Current Mesonet Observations  Soil Data  Daily Summary Page  Observations in Plain Language
KPD3 140500Z 16005KT 19/15 A2993 RMK A01 T01890152  RH  079%=      5-min Rain = 0
KPD3 140501Z 16004KT 19/15 A2993 RMK A01 T01890152  RH  079%=      5-min Rain = 0
KPD3 140502Z 16004KT 19/15 A2993 RMK A01 T01890153  RH  079%=      5-min Rain = 0
KPD3 140503Z 16005KT 19/15 A2993 RMK A01 T01890153  RH  079%=      5-min Rain = 0
KPD3 140504Z 16005KT 19/15 A2993 RMK A01 T01890152  RH  079%=      5-min Rain = 0
KPD3 140505Z 16004KT 19/15 A2993 RMK A01 T01890151  RH  079%=      5-min Rain = 0
KPD3 140506Z 17004KT 19/15 A2993 RMK A01 T01890151  RH  079%=      5-min Rain = 0
KPD3 140507Z 16005KT 19/15 A2993 RMK A01 T01880151  RH  079%=      5-min Rain = 0
KPD3 140508Z 16005KT 19/15 A2993 RMK A01 T01880150  RH  079%=      5-min Rain = 0
KPD3 140509Z 16005KT 19/15 A2993 RMK A01 T01870150  RH  079%=      5-min Rain = 0
KPD3 140510Z 16005KT 19/15 A2993 RMK A01 T01870149  RH  079%=      5-min Rain = 0
KPD3 140511Z 16004KT 19/15 A2993 RMK A01 T01860149  RH  079%=      5-min Rain = 0
KPD3 140512Z 16005KT 19/15 A2993 RMK A01 T01860149  RH  079%=      5-min Rain = 0
KPD3 140513Z 16004KT 19/15 A2993 RMK A01 T01850148  RH  079%=      5-min Rain = 0
KPD3 140514Z 17004KT 19/15 A2993 RMK A01 T01850148  RH  079%=      5-min Rain = 0
KPD3 140515Z 17004KT 18/15 A2993 RMK A01 T01840147  RH  079%=      5-min Rain = 0
KPD3 140516Z 16003KT 18/15 A2993 RMK A01 T01840148  RH  079%=      5-min Rain = 0
KPD3 140517Z 16003KT 18/15 A2993 RMK A01 T01830147  RH  079%=      5-min Rain = 0
KPD3 140518Z 16003KT 18/15 A2993 RMK A01 T01830147  RH  079%=      5-min Rain = 0
KPD3 140519Z 17003KT 18/15 A2993 RMK A01 T01830147  RH  079%=      5-min Rain = 0
KPD3 140520Z 16002KT 18/15 A2993 RMK A01 T01830147  RH  080%=      5-min Rain = 0
KPD3 140521Z 16002KT 18/15 A2993 RMK A01 T01830147  RH  080%=      5-min Rain = 0
KPD3 140522Z 16003KT 18/15 A2993 RMK A01 T01820147  RH  080%=      5-min Rain = 0
KPD3 140523Z 15003KT 18/15 A2993 RMK A01 T01820147  RH  080%=      5-min Rain = 0
KPD3 140524Z 14003KT 18/15 A2993 RMK A01 T01820147  RH  080%=      5-min Rain = 0
KPD3 140525Z 14003KT 18/15 A2993 RMK A01 T01820148  RH  080%=      5-min Rain = 0
KPD3 140526Z 13003KT 18/15 A2993 RMK A01 T01820147  RH  080%=      5-min Rain = 0
KPD3 140527Z 14003KT 18/15 A2993 RMK A01 T01820147  RH  080%=      5-min Rain = 0
KPD3 140528Z 15002KT 18/15 A2993 RMK A01 T01820146  RH  080%=      5-min Rain = 0
KPD3 140529Z 15002KT 18/15 A2993 RMK A01 T01820146  RH  080%=      5-min Rain = 0
KPD3 140530Z 15002KT 18/15 A2993 RMK A01 T01820146  RH  080%=      5-min Rain = 0
KPD3 140531Z 15002KT 18/15 A2993 RMK A01 T01810145  RH  079%=      5-min Rain = 0
KPD3 140532Z 15001KT 18/15 A2993 RMK A01 T01810145  RH  079%=      5-min Rain = 0
KPD3 140533Z 15002KT 18/15 A2993 RMK A01 T01800145  RH  080%=      5-min Rain = 0
KPD3 140534Z 15001KT 18/15 A2993 RMK A01 T01800145  RH  080%=      5-min Rain = 0
KPD3 140535Z 19001KT 18/14 A2993 RMK A01 T01800144  RH  080%=      5-min Rain = 0
KPD3 140536Z 20001KT 18/15 A2993 RMK A01 T01800145  RH  080%=      5-min Rain = 0
KPD3 140537Z 19001KT 18/15 A2993 RMK A01 T01800146  RH  080%=      5-min Rain = 0
KPD3 140538Z 19001KT 18/14 A2993 RMK A01 T01810144  RH  079%=      5-min Rain = 0
KPD3 140539Z 19001KT 18/14 A2993 RMK A01 T01810143  RH  079%=      5-min Rain = 0
KPD3 140540Z 18001KT 18/14 A2993 RMK A01 T01810143  RH  078%=      5-min Rain = 0
KPD3 140541Z 18002KT 18/14 A2993 RMK A01 T01800141  RH  078%=      5-min Rain = 0
KPD3 140542Z 18002KT 18/14 A2993 RMK A01 T01780141  RH  078%=      5-min Rain = 0
KPD3 140543Z 19002KT 18/14 A2993 RMK A01 T01770141  RH  079%=      5-min Rain = 0
KPD3 140544Z 22002KT 18/14 A2993 RMK A01 T01760139  RH  079%=      5-min Rain = 0
KPD3 140545Z 22003KT 17/14 A2993 RMK A01 T01740137  RH  079%=      5-min Rain = 0
KPD3 140546Z 23003KT 17/14 A2993 RMK A01 T01710136  RH  080%=      5-min Rain = 0
KPD3 140547Z 23003KT 17/14 A2993 RMK A01 T01690137  RH  081%=      5-min Rain = 0
KPD3 140548Z 23003KT 17/14 A2993 RMK A01 T01680137  RH  082%=      5-min Rain = 0
KPD3 140549Z 23003KT 17/14 A2993 RMK A01 T01670136  RH  082%=      5-min Rain = 0
KPD3 140550Z 23003KT 17/14 A2993 RMK A01 T01660137  RH  083%=      5-min Rain = 0
KPD3 140551Z 22003KT 17/14 A2993 RMK A01 T01660137  RH  083%=      5-min Rain = 0
KPD3 140552Z 20003KT 17/14 A2993 RMK A01 T01650137  RH  083%=      5-min Rain = 0
KPD3 140553Z 20003KT 17/14 A2993 RMK A01 T01650137  RH  084%=      5-min Rain = 0
KPD3 140554Z 19003KT 17/14 A2993 RMK A01 T01650138  RH  084%=      5-min Rain = 0
KPD3 140555Z 18003KT 17/14 A2993 RMK A01 T01660139  RH  084%=      5-min Rain = 0
KPD3 140556Z 18003KT 17/14 A2993 RMK A01 T01670139  RH  083%=      5-min Rain = 0
KPD3 140557Z 17003KT 17/14 A2993 RMK A01 T01690140  RH  083%=      5-min Rain = 0
KPD3 140558Z 17003KT 17/14 A2993 RMK A01 T01690140  RH  083%=      5-min Rain = 0
KPD3 140559Z 17003KT 17/14 A2993 RMK A01 T01710140  RH  082%=      5-min Rain = 0
KPD3 140600Z 16004KT 17/14 A2993 RMK A01 T01710140  RH  082%=      5-min Rain = 0
KPD3 140601Z 16004KT 17/14 A2993 RMK A01 T01710140  RH  082%=      5-min Rain = 0
KPD3 140602Z 16004KT 17/14 A2993 RMK A01 T01710140  RH  082%=      5-min Rain = 0
KPD3 140603Z 15003KT 17/14 A2993 RMK A01 T01720140  RH  082%=      5-min Rain = 0
KPD3 140604Z 16003KT 17/14 A2993 RMK A01 T01720139  RH  081%=      5-min Rain = 0
KPD3 140605Z 15003KT 17/14 A2993 RMK A01 T01720139  RH  081%=      5-min Rain = 0
KPD3 140606Z 15003KT 17/14 A2993 RMK A01 T01720140  RH  081%=      5-min Rain = 0
KPD3 140607Z 15002KT 17/14 A2993 RMK A01 T01710140  RH  082%=      5-min Rain = 0
KPD3 140608Z 15002KT 17/14 A2993 RMK A01 T01710140  RH  082%=      5-min Rain = 0
KPD3 140609Z 15002KT 17/14 A2993 RMK A01 T01710140  RH  082%=      5-min Rain = 0
KPD3 140610Z 15002KT 17/14 A2993 RMK A01 T01720141  RH  082%=      5-min Rain = 0
KPD3 140611Z 14001KT 17/14 A2993 RMK A01 T01730141  RH  081%=      5-min Rain = 0
KPD3 140612Z 13001KT 17/14 A2993 RMK A01 T01740140  RH  081%=      5-min Rain = 0
KPD3 140613Z 12001KT 17/14 A2993 RMK A01 T01730137  RH  079%=      5-min Rain = 0
KPD3 140614Z 11001KT 17/14 A2993 RMK A01 T01720137  RH  080%=      5-min Rain = 0
KPD3 140615Z 12000KT 17/14 A2993 RMK A01 T01710138  RH  081%=      5-min Rain = 0
KPD3 140616Z 13000KT 17/14 A2993 RMK A01 T01700137  RH  081%=      5-min Rain = 0
KPD3 140617Z 11000KT 17/14 A2993 RMK A01 T01700137  RH  081%=      5-min Rain = 0
KPD3 140618Z 07000KT 17/14 A2993 RMK A01 T01690138  RH  082%=      5-min Rain = 0
KPD3 140619Z 08001KT 17/14 A2993 RMK A01 T01700139  RH  082%=      5-min Rain = 0
KPD3 140620Z 03001KT 17/14 A2993 RMK A01 T01710139  RH  082%=      5-min Rain = 0
KPD3 140621Z 35000KT 17/14 A2993 RMK A01 T01710138  RH  081%=      5-min Rain = 0
KPD3 140622Z 05001KT 17/14 A2993 RMK A01 T01700138  RH  082%=      5-min Rain = 0
KPD3 140623Z 06001KT 17/14 A2993 RMK A01 T01700139  RH  082%=      5-min Rain = 0
KPD3 140624Z 05001KT 17/14 A2993 RMK A01 T01710139  RH  082%=      5-min Rain = 0
KPD3 140625Z 09000KT 17/14 A2993 RMK A01 T01710139  RH  081%=      5-min Rain = 0
KPD3 140626Z 03000KT 17/14 A2993 RMK A01 T01700139  RH  082%=      5-min Rain = 0
KPD3 140627Z 00000KT 17/14 A2993 RMK A01 T01710139  RH  082%=      5-min Rain = 0
KPD3 140628Z 10001KT 17/14 A2993 RMK A01 T01710139  RH  082%=      5-min Rain = 0
KPD3 140629Z 08001KT 17/14 A2993 RMK A01 T01710139  RH  081%=      5-min Rain = 0
KPD3 140630Z 08001KT 17/14 A2993 RMK A01 T01710139  RH  081%=      5-min Rain = 0
KPD3 140631Z 11000KT 17/14 A2993 RMK A01 T01710138  RH  081%=      5-min Rain = 0
KPD3 140632Z 11000KT 17/14 A2994 RMK A01 T01710139  RH  081%=      5-min Rain = 0
KPD3 140633Z 10001KT 17/14 A2994 RMK A01 T01710139  RH  082%=      5-min Rain = 0
KPD3 140634Z 10001KT 17/14 A2994 RMK A01 T01710139  RH  082%=      5-min Rain = 0
KPD3 140635Z 10001KT 17/14 A2994 RMK A01 T01710140  RH  082%=      5-min Rain = 0
KPD3 140636Z 09002KT 17/14 A2994 RMK A01 T01720140  RH  082%=      5-min Rain = 0
KPD3 140637Z 11002KT 17/14 A2994 RMK A01 T01730142  RH  082%=      5-min Rain = 0
KPD3 140638Z 11002KT 17/14 A2994 RMK A01 T01740142  RH  081%=      5-min Rain = 0
KPD3 140639Z 11003KT 18/14 A2994 RMK A01 T01760142  RH  081%=      5-min Rain = 0
KPD3 140640Z 11003KT 18/14 A2994 RMK A01 T01760141  RH  080%=      5-min Rain = 0
KPD3 140641Z 12003KT 18/14 A2994 RMK A01 T01760142  RH  080%=      5-min Rain = 0
KPD3 140642Z 12003KT 18/14 A2994 RMK A01 T01770142  RH  080%=      5-min Rain = 0
KPD3 140643Z 13003KT 18/14 A2994 RMK A01 T01770142  RH  080%=      5-min Rain = 0
KPD3 140644Z 13003KT 18/14 A2994 RMK A01 T01770142  RH  080%=      5-min Rain = 0
KPD3 140645Z 13003KT 18/14 A2994 RMK A01 T01770142  RH  080%=      5-min Rain = 0
KPD3 140646Z 14002KT 18/14 A2994 RMK A01 T01770143  RH  080%=      5-min Rain = 0
KPD3 140647Z 13003KT 18/14 A2994 RMK A01 T01770144  RH  081%=      5-min Rain = 0
KPD3 140648Z 13002KT 18/14 A2994 RMK A01 T01770144  RH  081%=      5-min Rain = 0
KPD3 140649Z 14002KT 18/14 A2994 RMK A01 T01770144  RH  081%=      5-min Rain = 0
KPD3 140650Z 14002KT 18/15 A2994 RMK A01 T01770145  RH  081%=      5-min Rain = 0
KPD3 140651Z 13002KT 18/15 A2994 RMK A01 T01770145  RH  082%=      5-min Rain = 0
KPD3 140652Z 12003KT 18/15 A2994 RMK A01 T01770146  RH  082%=      5-min Rain = 0
KPD3 140653Z 12003KT 18/15 A2994 RMK A01 T01770147  RH  083%=      5-min Rain = 0
KPD3 140654Z 11003KT 18/15 A2994 RMK A01 T01770147  RH  083%=      5-min Rain = 0
KPD3 140655Z 11002KT 18/15 A2994 RMK A01 T01780148  RH  082%=      5-min Rain = 0
KPD3 140656Z 12002KT 18/15 A2994 RMK A01 T01780148  RH  082%=      5-min Rain = 0
KPD3 140657Z 11002KT 18/15 A2994 RMK A01 T01780148  RH  082%=      5-min Rain = 0
KPD3 140658Z 13001KT 18/15 A2994 RMK A01 T01780147  RH  082%=      5-min Rain = 0
KPD3 140659Z 13001KT 18/15 A2994 RMK A01 T01780147  RH  082%=      5-min Rain = 0
KPD3 140700Z 10000KT 18/15 A2994 RMK A01 T01780147  RH  082%=      5-min Rain = 0
KPD3 140701Z 13000KT 18/15 A2994 RMK A01 T01780148  RH  083%=      5-min Rain = 0
KPD3 140702Z 13001KT 18/15 A2994 RMK A01 T01780147  RH  082%=      5-min Rain = 0
KPD3 140703Z 16000KT 18/15 A2994 RMK A01 T01780148  RH  083%=      5-min Rain = 0
KPD3 140704Z 16000KT 18/15 A2994 RMK A01 T01780151  RH  084%=      5-min Rain = 0
KPD3 140705Z 20000KT 18/15 A2994 RMK A01 T01780150  RH  084%=      5-min Rain = 0
KPD3 140706Z 00000KT 18/15 A2994 RMK A01 T01780149  RH  083%=      5-min Rain = 0
KPD3 140707Z 00000KT 18/15 A2994 RMK A01 T01780150  RH  083%=      5-min Rain = 0
KPD3 140708Z 00000KT 18/15 A2994 RMK A01 T01790150  RH  083%=      5-min Rain = 0
KPD3 140709Z 27000KT 18/15 A2994 RMK A01 T01780149  RH  083%=      5-min Rain = 0
KPD3 140710Z 30000KT 18/15 A2994 RMK A01 T01770147  RH  082%=      5-min Rain = 0
KPD3 140711Z 27001KT 18/15 A2994 RMK A01 T01760149  RH  084%=      5-min Rain = 0
KPD3 140712Z 23001KT 18/15 A2994 RMK A01 T01760151  RH  085%=      5-min Rain = 0
KPD3 140713Z 23001KT 18/15 A2994 RMK A01 T01760153  RH  086%=      5-min Rain = 0
KPD3 140714Z 21002KT 18/15 A2994 RMK A01 T01770154  RH  086%=      5-min Rain = 0
KPD3 140715Z 22002KT 18/16 A2994 RMK A01 T01780156  RH  087%=      5-min Rain = 0
KPD3 140716Z 20002KT 18/16 A2994 RMK A01 T01780155  RH  086%=      5-min Rain = 0
KPD3 140717Z 19002KT 18/16 A2994 RMK A01 T01790157  RH  087%=      5-min Rain = 0
KPD3 140718Z 20001KT 18/16 A2994 RMK A01 T01790155  RH  086%=      5-min Rain = 0
KPD3 140719Z 19001KT 18/15 A2994 RMK A01 T01790154  RH  085%=      5-min Rain = 0
KPD3 140720Z 17002KT 18/15 A2994 RMK A01 T01780152  RH  085%=      5-min Rain = 0
KPD3 140721Z 18002KT 18/16 A2994 RMK A01 T01770155  RH  087%=      5-min Rain = 0
KPD3 140722Z 18002KT 18/16 A2994 RMK A01 T01780160  RH  089%=      5-min Rain = 0
KPD3 140723Z 20002KT 18/16 A2994 RMK A01 T01790159  RH  088%=      5-min Rain = 0
KPD3 140724Z 20002KT 18/16 A2994 RMK A01 T01790158  RH  087%=      5-min Rain = 0
KPD3 140725Z 21003KT 18/16 A2994 RMK A01 T01780155  RH  086%=      5-min Rain = 0
KPD3 140726Z 22003KT 18/15 A2994 RMK A01 T01760152  RH  086%=      5-min Rain = 0
KPD3 140727Z 21003KT 17/15 A2994 RMK A01 T01740153  RH  088%=      5-min Rain = 0
KPD3 140728Z 23004KT 17/15 A2994 RMK A01 T01730151  RH  087%=      5-min Rain = 0
KPD3 140729Z 23004KT 17/15 A2994 RMK A01 T01710149  RH  087%=      5-min Rain = 0
KPD3 140730Z 23004KT 17/15 A2994 RMK A01 T01690148  RH  087%=      5-min Rain = 0
KPD3 140731Z 23004KT 17/15 A2994 RMK A01 T01680149  RH  089%=      5-min Rain = 0
KPD3 140732Z 22003KT 17/15 A2994 RMK A01 T01680150  RH  089%=      5-min Rain = 0
KPD3 140733Z 22003KT 17/15 A2993 RMK A01 T01680150  RH  089%=      5-min Rain = 0
KPD3 140734Z 21003KT 17/15 A2993 RMK A01 T01680152  RH  090%=      5-min Rain = 0
KPD3 140735Z 20002KT 17/15 A2993 RMK A01 T01690152  RH  090%=      5-min Rain = 0
KPD3 140736Z 20002KT 17/15 A2993 RMK A01 T01690152  RH  090%=      5-min Rain = 0
KPD3 140737Z 17002KT 17/15 A2993 RMK A01 T01700154  RH  091%=      5-min Rain = 0
KPD3 140738Z 19002KT 17/16 A2993 RMK A01 T01710158  RH  092%=      5-min Rain = 0
KPD3 140739Z 17003KT 17/16 A2993 RMK A01 T01720158  RH  091%=      5-min Rain = 0
KPD3 140740Z 16002KT 17/16 A2993 RMK A01 T01730157  RH  091%=      5-min Rain = 0
KPD3 140741Z 17003KT 17/16 A2993 RMK A01 T01730159  RH  091%=      5-min Rain = 0
KPD3 140742Z 17003KT 17/16 A2993 RMK A01 T01740160  RH  092%=      5-min Rain = 0
KPD3 140743Z 18003KT 18/16 A2993 RMK A01 T01750161  RH  091%=      5-min Rain = 0
KPD3 140744Z 18003KT 18/16 A2993 RMK A01 T01750161  RH  091%=      5-min Rain = 0
KPD3 140745Z 18003KT 18/16 A2993 RMK A01 T01760160  RH  091%=      5-min Rain = 0
KPD3 140746Z 19002KT 18/16 A2993 RMK A01 T01760159  RH  090%=      5-min Rain = 0
KPD3 140747Z 21002KT 18/16 A2993 RMK A01 T01750159  RH  090%=      5-min Rain = 0
KPD3 140748Z 21003KT 17/16 A2993 RMK A01 T01740157  RH  089%=      5-min Rain = 0
KPD3 140749Z 21003KT 17/16 A2993 RMK A01 T01730157  RH  090%=      5-min Rain = 0
KPD3 140750Z 22003KT 17/16 A2993 RMK A01 T01730159  RH  091%=      5-min Rain = 0
KPD3 140751Z 21003KT 17/16 A2993 RMK A01 T01730158  RH  091%=      5-min Rain = 0
KPD3 140752Z 21003KT 17/16 A2993 RMK A01 T01720158  RH  091%=      5-min Rain = 0
KPD3 140753Z 21003KT 17/16 A2993 RMK A01 T01720159  RH  092%=      5-min Rain = 0
KPD3 140754Z 21003KT 17/16 A2993 RMK A01 T01720158  RH  091%=      5-min Rain = 0
KPD3 140755Z 21003KT 17/16 A2993 RMK A01 T01720158  RH  091%=      5-min Rain = 0
KPD3 140756Z 20003KT 17/16 A2993 RMK A01 T01720158  RH  092%=      5-min Rain = 0
KPD3 140757Z 20003KT 17/16 A2993 RMK A01 T01720159  RH  092%=      5-min Rain = 0
KPD3 140758Z 20002KT 17/16 A2993 RMK A01 T01720159  RH  092%=      5-min Rain = 0
KPD3 140759Z 20003KT 17/16 A2993 RMK A01 T01720159  RH  092%=      5-min Rain = 0
KPD3 140800Z 20003KT 17/16 A2993 RMK A01 T01720159  RH  092%=      5-min Rain = 0
KPD3 140801Z 20002KT 17/16 A2993 RMK A01 T01720160  RH  093%=      5-min Rain = 0
KPD3 140802Z 20003KT 17/16 A2993 RMK A01 T01720159  RH  092%=      5-min Rain = 0
KPD3 140803Z 20003KT 17/16 A2993 RMK A01 T01720159  RH  092%=      5-min Rain = 0
KPD3 140804Z 20003KT 17/16 A2993 RMK A01 T01720162  RH  094%=      5-min Rain = 0
KPD3 140805Z 20003KT 17/16 A2993 RMK A01 T01730162  RH  093%=      5-min Rain = 0
KPD3 140806Z 19003KT 17/16 A2993 RMK A01 T01730163  RH  093%=      5-min Rain = 0
KPD3 140807Z 18003KT 18/16 A2992 RMK A01 T01750164  RH  094%=      5-min Rain = 0
KPD3 140808Z 19003KT 18/17 A2992 RMK A01 T01750165  RH  094%=      5-min Rain = 0
KPD3 140809Z 20002KT 18/17 A2992 RMK A01 T01760166  RH  094%=      5-min Rain = 0
KPD3 140810Z 20002KT 18/17 A2992 RMK A01 T01770166  RH  094%=      5-min Rain = 0
KPD3 140811Z 19002KT 18/17 A2992 RMK A01 T01770165  RH  093%=      5-min Rain = 0
KPD3 140812Z 21002KT 18/17 A2992 RMK A01 T01760165  RH  093%=      5-min Rain = 0
KPD3 140813Z 21002KT 18/17 A2992 RMK A01 T01770165  RH  093%=      5-min Rain = 0
KPD3 140814Z 19002KT 18/16 A2992 RMK A01 T01760164  RH  093%=      5-min Rain = 0
KPD3 140815Z 19002KT 18/16 A2992 RMK A01 T01760164  RH  093%=      5-min Rain = 0
KPD3 140816Z 18002KT 18/16 A2992 RMK A01 T01760164  RH  093%=      5-min Rain = 0
KPD3 140817Z 19002KT 18/17 A2992 RMK A01 T01760165  RH  094%=      5-min Rain = 0
KPD3 140818Z 18002KT 18/17 A2992 RMK A01 T01760166  RH  094%=      5-min Rain = 0
KPD3 140819Z 18002KT 18/17 A2992 RMK A01 T01760167  RH  094%=      5-min Rain = 0
KPD3 140820Z 18003KT 18/17 A2992 RMK A01 T01770167  RH  094%=      5-min Rain = 0
KPD3 140821Z 18003KT 18/17 A2992 RMK A01 T01770166  RH  094%=      5-min Rain = 0
KPD3 140822Z 19003KT 18/17 A2992 RMK A01 T01760166  RH  094%=      5-min Rain = 0
KPD3 140823Z 18004KT 18/17 A2992 RMK A01 T01750165  RH  094%=      5-min Rain = 0
KPD3 140824Z 19003KT 18/17 A2992 RMK A01 T01750166  RH  094%=      5-min Rain = 0
KPD3 140825Z 17003KT 18/17 A2992 RMK A01 T01750166  RH  095%=      5-min Rain = 0
KPD3 140826Z 18003KT 18/17 A2992 RMK A01 T01750165  RH  094%=      5-min Rain = 0
KPD3 140827Z 18002KT 17/17 A2992 RMK A01 T01740165  RH  094%=      5-min Rain = 0
KPD3 140828Z 18003KT 17/17 A2992 RMK A01 T01740165  RH  094%=      5-min Rain = 0
KPD3 140829Z 18002KT 17/16 A2992 RMK A01 T01730163  RH  094%=      5-min Rain = 0
KPD3 140830Z 19002KT 17/16 A2992 RMK A01 T01720162  RH  094%=      5-min Rain = 0
KPD3 140831Z 19002KT 17/16 A2992 RMK A01 T01720163  RH  094%=      5-min Rain = 0
KPD3 140832Z 19002KT 17/16 A2992 RMK A01 T01720164  RH  095%=      5-min Rain = 0
KPD3 140833Z 22002KT 17/16 A2992 RMK A01 T01720163  RH  095%=      5-min Rain = 0
KPD3 140834Z 23002KT 17/16 A2992 RMK A01 T01710163  RH  095%=      5-min Rain = 0
KPD3 140835Z 23002KT 17/16 A2992 RMK A01 T01700161  RH  095%=      5-min Rain = 0
KPD3 140836Z 22002KT 17/16 A2992 RMK A01 T01700163  RH  095%=      5-min Rain = 0
KPD3 140837Z 23002KT 17/16 A2992 RMK A01 T01700163  RH  095%=      5-min Rain = 0
KPD3 140838Z 23002KT 17/16 A2992 RMK A01 T01690162  RH  096%=      5-min Rain = 0
KPD3 140839Z 23002KT 17/16 A2992 RMK A01 T01680161  RH  095%=      5-min Rain = 0
KPD3 140840Z 22002KT 17/16 A2992 RMK A01 T01680162  RH  096%=      5-min Rain = 0
KPD3 140841Z 22002KT 17/16 A2992 RMK A01 T01680162  RH  096%=      5-min Rain = 0
KPD3 140842Z 22002KT 17/16 A2992 RMK A01 T01680161  RH  096%=      5-min Rain = 0
KPD3 140843Z 22002KT 17/16 A2992 RMK A01 T01670161  RH  096%=      5-min Rain = 0
KPD3 140844Z 22002KT 17/16 A2992 RMK A01 T01680162  RH  096%=      5-min Rain = 0
KPD3 140845Z 22002KT 17/16 A2992 RMK A01 T01680162  RH  096%=      5-min Rain = 0
KPD3 140846Z 22002KT 17/16 A2992 RMK A01 T01680162  RH  096%=      5-min Rain = 0
KPD3 140847Z 21002KT 17/16 A2992 RMK A01 T01680163  RH  097%=      5-min Rain = 0
KPD3 140848Z 20002KT 17/17 A2992 RMK A01 T01700165  RH  097%=      5-min Rain = 0
KPD3 140849Z 19002KT 17/17 A2992 RMK A01 T01720168  RH  098%=      5-min Rain = 0
KPD3 140850Z 19002KT 17/17 A2992 RMK A01 T01720169  RH  098%=      5-min Rain = 0
KPD3 140851Z 20002KT 17/17 A2992 RMK A01 T01730170  RH  098%=      5-min Rain = 0
KPD3 140852Z 20002KT 17/17 A2992 RMK A01 T01730169  RH  097%=      5-min Rain = 0
KPD3 140853Z 20002KT 17/17 A2992 RMK A01 T01730169  RH  097%=      5-min Rain = 0
KPD3 140854Z 21002KT 17/17 A2992 RMK A01 T01720168  RH  097%=      5-min Rain = 0
KPD3 140855Z 21002KT 17/17 A2992 RMK A01 T01720168  RH  097%=      5-min Rain = 0
KPD3 140856Z 22002KT 17/17 A2992 RMK A01 T01720167  RH  097%=      5-min Rain = 0
KPD3 140857Z 21002KT 17/17 A2992 RMK A01 T01720167  RH  097%=      5-min Rain = 0
KPD3 140858Z 20002KT 17/17 A2992 RMK A01 T01710167  RH  097%=      5-min Rain = 0
KPD3 140859Z 21002KT 17/17 A2992 RMK A01 T01710167  RH  097%=      5-min Rain = 0
KPD3 140900Z 20002KT 17/17 A2992 RMK A01 T01710167  RH  097%=      5-min Rain = 0
KPD3 140901Z 19002KT 17/17 A2992 RMK A01 T01710167  RH  097%=      5-min Rain = 0
KPD3 140902Z 19002KT 17/17 A2992 RMK A01 T01720168  RH  097%=      5-min Rain = 0
KPD3 140903Z 20002KT 17/17 A2992 RMK A01 T01710167  RH  097%=      5-min Rain = 0
KPD3 140904Z 19001KT 17/17 A2992 RMK A01 T01710167  RH  097%=      5-min Rain = 0
KPD3 140905Z 19002KT 17/17 A2992 RMK A01 T01710167  RH  098%=      5-min Rain = 0
KPD3 140906Z 20001KT 17/17 A2992 RMK A01 T01720168  RH  098%=      5-min Rain = 0
KPD3 140907Z 22002KT 17/17 A2992 RMK A01 T01720169  RH  098%=      5-min Rain = 0
KPD3 140908Z 23002KT 17/17 A2992 RMK A01 T01730170  RH  098%=      5-min Rain = 0
KPD3 140909Z 24002KT 17/17 A2992 RMK A01 T01730169  RH  098%=      5-min Rain = 0
KPD3 140910Z 24002KT 17/17 A2992 RMK A01 T01710167  RH  098%=      5-min Rain = 0
KPD3 140911Z 23002KT 17/16 A2992 RMK A01 T01680164  RH  097%=      5-min Rain = 0
KPD3 140912Z 23002KT 17/16 A2992 RMK A01 T01670163  RH  097%=      5-min Rain = 0
KPD3 140913Z 21001KT 17/16 A2992 RMK A01 T01660163  RH  097%=      5-min Rain = 0
KPD3 140914Z 22001KT 17/16 A2992 RMK A01 T01670164  RH  098%=      5-min Rain = 0
KPD3 140915Z 17000KT 17/17 A2992 RMK A01 T01680165  RH  098%=      5-min Rain = 0
KPD3 140916Z 00000KT 17/17 A2992 RMK A01 T01680165  RH  098%=      5-min Rain = 0
KPD3 140917Z 22000KT 17/17 A2992 RMK A01 T01700168  RH  098%=      5-min Rain = 0
KPD3 140918Z 23001KT 17/17 A2992 RMK A01 T01710168  RH  098%=      5-min Rain = 0
KPD3 140919Z 24002KT 17/17 A2992 RMK A01 T01720170  RH  099%=      5-min Rain = 0
KPD3 140920Z 24002KT 17/17 A2992 RMK A01 T01700167  RH  098%=      5-min Rain = 0
KPD3 140921Z 23002KT 17/17 A2992 RMK A01 T01680165  RH  098%=      5-min Rain = 0
KPD3 140922Z 22001KT 17/16 A2992 RMK A01 T01670164  RH  098%=      5-min Rain = 0
KPD3 140923Z 20001KT 17/16 A2992 RMK A01 T01670164  RH  098%=      5-min Rain = 0
KPD3 140924Z 22001KT 17/16 A2992 RMK A01 T01670164  RH  098%=      5-min Rain = 0
KPD3 140925Z 22001KT 17/17 A2992 RMK A01 T01680166  RH  098%=      5-min Rain = 0
KPD3 140926Z 22001KT 17/17 A2992 RMK A01 T01690166  RH  099%=      5-min Rain = 0
KPD3 140927Z 23002KT 17/17 A2992 RMK A01 T01680166  RH  098%=      5-min Rain = 0
KPD3 140928Z 23001KT 17/17 A2992 RMK A01 T01670165  RH  098%=      5-min Rain = 0
KPD3 140929Z 24001KT 17/16 A2992 RMK A01 T01650162  RH  098%=      5-min Rain = 0
KPD3 140930Z 24001KT 16/16 A2992 RMK A01 T01640160  RH  098%=      5-min Rain = 0
KPD3 140931Z 25001KT 17/16 A2992 RMK A01 T01650162  RH  098%=      5-min Rain = 0
KPD3 140932Z 26001KT 17/16 A2992 RMK A01 T01660163  RH  099%=      5-min Rain = 0
KPD3 140933Z 27001KT 16/16 A2992 RMK A01 T01640162  RH  098%=      5-min Rain = 0
KPD3 140934Z 28001KT 16/16 A2992 RMK A01 T01620159  RH  098%=      5-min Rain = 0
KPD3 140935Z 29001KT 16/16 A2992 RMK A01 T01600156  RH  098%=      5-min Rain = 0
KPD3 140936Z 30001KT 16/15 A2992 RMK A01 T01560153  RH  098%=      5-min Rain = 0
KPD3 140937Z 30001KT 15/15 A2992 RMK A01 T01530149  RH  097%=      5-min Rain = 0
KPD3 140938Z 30001KT 15/15 A2992 RMK A01 T01510147  RH  097%=      5-min Rain = 0
KPD3 140939Z 31001KT 15/15 A2992 RMK A01 T01500147  RH  098%=      5-min Rain = 0
KPD3 140940Z 32001KT 15/15 A2992 RMK A01 T01510147  RH  098%=      5-min Rain = 0
KPD3 140941Z 33001KT 15/15 A2992 RMK A01 T01510148  RH  098%=      5-min Rain = 0
KPD3 140942Z 34001KT 15/15 A2992 RMK A01 T01510148  RH  098%=      5-min Rain = 0
KPD3 140943Z 34002KT 15/15 A2992 RMK A01 T01510148  RH  098%=      5-min Rain = 0
KPD3 140944Z 33002KT 15/15 A2992 RMK A01 T01520149  RH  098%=      5-min Rain = 0
KPD3 140945Z 33002KT 15/15 A2992 RMK A01 T01520150  RH  098%=      5-min Rain = 0
KPD3 140946Z 34002KT 15/15 A2992 RMK A01 T01520150  RH  098%=      5-min Rain = 0
KPD3 140947Z 36002KT 15/15 A2992 RMK A01 T01520149  RH  098%=      5-min Rain = 0
KPD3 140948Z 00002KT 15/15 A2992 RMK A01 T01510149  RH  099%=      5-min Rain = 0
KPD3 140949Z 01002KT 15/15 A2992 RMK A01 T01510149  RH  099%=      5-min Rain = 0
KPD3 140950Z 01002KT 15/15 A2992 RMK A01 T01530151  RH  099%=      5-min Rain = 0
KPD3 140951Z 00002KT 15/15 A2992 RMK A01 T01540153  RH  099%=      5-min Rain = 0
KPD3 140952Z 35002KT 16/15 A2992 RMK A01 T01550153  RH  099%=      5-min Rain = 0
KPD3 140953Z 35002KT 16/15 A2992 RMK A01 T01550153  RH  099%=      5-min Rain = 0
KPD3 140954Z 36002KT 16/15 A2992 RMK A01 T01560154  RH  099%=      5-min Rain = 0
KPD3 140955Z 35002KT 16/16 A2992 RMK A01 T01570155  RH  099%=      5-min Rain = 0
KPD3 140956Z 35002KT 16/16 A2992 RMK A01 T01560155  RH  099%=      5-min Rain = 0
KPD3 140957Z 35002KT 16/15 A2992 RMK A01 T01560154  RH  099%=      5-min Rain = 0
KPD3 140958Z 33001KT 16/16 A2992 RMK A01 T01580157  RH  099%=      5-min Rain = 0
KPD3 140959Z 35001KT 16/16 A2992 RMK A01 T01640163  RH  099%=      5-min Rain = 0
KPD3 141000Z 34002KT 16/16 A2992 RMK A01 T01620160  RH  099%=      5-min Rain = 0
KPD3 141001Z 35002KT 16/16 A2992 RMK A01 T01600158  RH  099%=      5-min Rain = 0
KPD3 141002Z 36001KT 16/16 A2992 RMK A01 T01600158  RH  099%=      5-min Rain = 0
KPD3 141003Z 00001KT 16/16 A2992 RMK A01 T01580156  RH  099%=      5-min Rain = 0
KPD3 141004Z 00001KT 16/16 A2992 RMK A01 T01570155  RH  099%=      5-min Rain = 0
KPD3 141005Z 36002KT 16/15 A2992 RMK A01 T01560154  RH  099%=      5-min Rain = 0
KPD3 141006Z 36002KT 16/15 A2992 RMK A01 T01560154  RH  099%=      5-min Rain = 0
KPD3 141007Z 02001KT 16/15 A2992 RMK A01 T01550153  RH  099%=      5-min Rain = 0
KPD3 141008Z 35001KT 16/15 A2992 RMK A01 T01560154  RH  099%=      5-min Rain = 0
KPD3 141009Z 35002KT 16/15 A2992 RMK A01 T01550153  RH  099%=      5-min Rain = 0
KPD3 141010Z 01002KT 15/15 A2992 RMK A01 T01540152  RH  099%=      5-min Rain = 0
KPD3 141011Z 02001KT 15/15 A2992 RMK A01 T01530151  RH  099%=      5-min Rain = 0
KPD3 141012Z 02002KT 15/15 A2992 RMK A01 T01520151  RH  099%=      5-min Rain = 0
KPD3 141013Z 02002KT 15/15 A2992 RMK A01 T01520151  RH  099%=      5-min Rain = 0
KPD3 141014Z 02002KT 15/15 A2992 RMK A01 T01520150  RH  099%=      5-min Rain = 0
KPD3 141015Z 01002KT 15/15 A2992 RMK A01 T01510149  RH  099%=      5-min Rain = 0
KPD3 141016Z 01002KT 15/15 A2992 RMK A01 T01500148  RH  099%=      5-min Rain = 0
KPD3 141017Z 01002KT 15/15 A2992 RMK A01 T01500148  RH  099%=      5-min Rain = 0
KPD3 141018Z 36002KT 15/15 A2992 RMK A01 T01500148  RH  099%=      5-min Rain = 0
KPD3 141019Z 35002KT 15/15 A2992 RMK A01 T01500148  RH  099%=      5-min Rain = 0
KPD3 141020Z 35002KT 15/15 A2992 RMK A01 T01490147  RH  099%=      5-min Rain = 0
KPD3 141021Z 35002KT 15/15 A2992 RMK A01 T01490148  RH  099%=      5-min Rain = 0
KPD3 141022Z 35002KT 15/15 A2992 RMK A01 T01490147  RH  099%=      5-min Rain = 0
KPD3 141023Z 33002KT 15/15 A2992 RMK A01 T01480147  RH  099%=      5-min Rain = 0
KPD3 141024Z 32002KT 15/15 A2992 RMK A01 T01480146  RH  099%=      5-min Rain = 0
KPD3 141025Z 32002KT 15/15 A2992 RMK A01 T01480147  RH  099%=      5-min Rain = 0
KPD3 141026Z 32002KT 15/15 A2992 RMK A01 T01480147  RH  099%=      5-min Rain = 0
KPD3 141027Z 32002KT 15/15 A2992 RMK A01 T01490147  RH  099%=      5-min Rain = 0
KPD3 141028Z 32002KT 15/15 A2992 RMK A01 T01490147  RH  099%=      5-min Rain = 0
KPD3 141029Z 32002KT 15/15 A2992 RMK A01 T01490147  RH  099%=      5-min Rain = 0
KPD3 141030Z 32002KT 15/15 A2992 RMK A01 T01490148  RH  099%=      5-min Rain = 0
KPD3 141031Z 32002KT 15/15 A2992 RMK A01 T01500148  RH  099%=      5-min Rain = 0
KPD3 141032Z 32002KT 15/15 A2992 RMK A01 T01500149  RH  099%=      5-min Rain = 0
KPD3 141033Z 31002KT 15/15 A2992 RMK A01 T01500149  RH  099%=      5-min Rain = 0
KPD3 141034Z 31002KT 15/15 A2992 RMK A01 T01500149  RH  099%=      5-min Rain = 0
KPD3 141035Z 31002KT 15/15 A2992 RMK A01 T01500149  RH  099%=      5-min Rain = 0
KPD3 141036Z 31002KT 15/15 A2992 RMK A01 T01510149  RH  099%=      5-min Rain = 0
KPD3 141037Z 31002KT 15/15 A2992 RMK A01 T01500149  RH  099%=      5-min Rain = 0
KPD3 141038Z 31002KT 15/15 A2992 RMK A01 T01510149  RH  099%=      5-min Rain = 0
KPD3 141039Z 31001KT 15/15 A2992 RMK A01 T01500149  RH  099%=      5-min Rain = 0
KPD3 141040Z 31001KT 15/15 A2992 RMK A01 T01500149  RH  099%=      5-min Rain = 0
KPD3 141041Z 30001KT 15/15 A2992 RMK A01 T01510149  RH  099%=      5-min Rain = 0
KPD3 141042Z 30001KT 15/15 A2992 RMK A01 T01500149  RH  099%=      5-min Rain = 0
KPD3 141043Z 30001KT 15/15 A2992 RMK A01 T01510149  RH  099%=      5-min Rain = 0
KPD3 141044Z 28001KT 15/15 A2992 RMK A01 T01500149  RH  099%=      5-min Rain = 0
KPD3 141045Z 27000KT 15/15 A2992 RMK A01 T01500149  RH  099%=      5-min Rain = 0
KPD3 141046Z 00000KT 15/15 A2992 RMK A01 T01500149  RH  099%=      5-min Rain = 0
KPD3 141047Z 00000KT 15/15 A2992 RMK A01 T01490148  RH  099%=      5-min Rain = 0
KPD3 141048Z 26000KT 15/15 A2992 RMK A01 T01480147  RH  099%=      5-min Rain = 0
KPD3 141049Z 25001KT 15/15 A2992 RMK A01 T01470146  RH  099%=      5-min Rain = 0
KPD3 141050Z 24000KT 15/15 A2992 RMK A01 T01470146  RH  099%=      5-min Rain = 0
KPD3 141051Z 00000KT 15/15 A2992 RMK A01 T01460145  RH  099%=      5-min Rain = 0
KPD3 141052Z 00000KT 15/14 A2992 RMK A01 T01460144  RH  099%=      5-min Rain = 0
KPD3 141053Z 24000KT 15/14 A2992 RMK A01 T01460144  RH  099%=      5-min Rain = 0
KPD3 141054Z 00000KT 15/14 A2992 RMK A01 T01450144  RH  099%=      5-min Rain = 0
KPD3 141055Z 25000KT 15/14 A2992 RMK A01 T01450144  RH  099%=      5-min Rain = 0
KPD3 141056Z 00000KT 15/14 A2992 RMK A01 T01450144  RH  099%=      5-min Rain = 0
KPD3 141057Z 28000KT 15/14 A2992 RMK A01 T01450144  RH  099%=      5-min Rain = 0
KPD3 141058Z 28001KT 15/14 A2992 RMK A01 T01450143  RH  099%=      5-min Rain = 0
KPD3 141059Z 28001KT 15/14 A2992 RMK A01 T01450143  RH  099%=      5-min Rain = 0
KPD3 141100Z 28002KT 14/14 A2992 RMK A01 T01440142  RH  099%=      5-min Rain = 0
KPD3 141101Z 28002KT 14/14 A2992 RMK A01 T01430142  RH  099%=      5-min Rain = 0
KPD3 141102Z 29002KT 14/14 A2992 RMK A01 T01430141  RH  099%=      5-min Rain = 0
KPD3 141103Z 28002KT 14/14 A2992 RMK A01 T01420141  RH  099%=      5-min Rain = 0
KPD3 141104Z 28003KT 14/14 A2992 RMK A01 T01420141  RH  099%=      5-min Rain = 0
KPD3 141105Z 28004KT 14/14 A2992 RMK A01 T01430142  RH  099%=      5-min Rain = 0
KPD3 141106Z 28004KT 14/14 A2992 RMK A01 T01430142  RH  099%=      5-min Rain = 0
KPD3 141107Z 28004KT 14/14 A2992 RMK A01 T01430142  RH  099%=      5-min Rain = 0
KPD3 141108Z 29003KT 14/14 A2992 RMK A01 T01440143  RH  099%=      5-min Rain = 0
KPD3 141109Z 28004KT 15/14 A2993 RMK A01 T01450144  RH  099%=      5-min Rain = 0
KPD3 141110Z 28004KT 15/14 A2993 RMK A01 T01450144  RH  099%=      5-min Rain = 0
KPD3 141111Z 28003KT 15/14 A2993 RMK A01 T01450144  RH  099%=      5-min Rain = 0
KPD3 141112Z 29003KT 15/14 A2993 RMK A01 T01450144  RH  099%=      5-min Rain = 0
KPD3 141113Z 28004KT 15/15 A2993 RMK A01 T01460145  RH  099%=      5-min Rain = 0
KPD3 141114Z 28004KT 15/15 A2993 RMK A01 T01460145  RH  099%=      5-min Rain = 0
KPD3 141115Z 29004KT 15/14 A2993 RMK A01 T01450144  RH  099%=      5-min Rain = 0
KPD3 141116Z 29003KT 15/14 A2993 RMK A01 T01450144  RH  099%=      5-min Rain = 0
KPD3 141117Z 29002KT 15/14 A2993 RMK A01 T01450144  RH  099%=      5-min Rain = 0
KPD3 141118Z 29002KT 15/14 A2993 RMK A01 T01450144  RH  099%=      5-min Rain = 0
KPD3 141119Z 29002KT 15/14 A2993 RMK A01 T01450144  RH  099%=      5-min Rain = 0
KPD3 141120Z 29002KT 15/14 A2993 RMK A01 T01450144  RH  099%=      5-min Rain = 0
KPD3 141121Z 29002KT 15/14 A2993 RMK A01 T01450143  RH  099%=      5-min Rain = 0
KPD3 141122Z 29002KT 14/14 A2993 RMK A01 T01440142  RH  099%=      5-min Rain = 0
KPD3 141123Z 29002KT 14/14 A2993 RMK A01 T01430142  RH  099%=      5-min Rain = 0
KPD3 141124Z 29001KT 14/14 A2993 RMK A01 T01430142  RH  099%=      5-min Rain = 0
KPD3 141125Z 29001KT 14/14 A2993 RMK A01 T01420141  RH  099%=      5-min Rain = 0
KPD3 141126Z 30001KT 14/14 A2993 RMK A01 T01410139  RH  099%=      5-min Rain = 0
KPD3 141127Z 28001KT 14/14 A2993 RMK A01 T01400139  RH  099%=      5-min Rain = 0
KPD3 141128Z 29001KT 14/14 A2993 RMK A01 T01400139  RH  099%=      5-min Rain = 0
KPD3 141129Z 31001KT 14/14 A2993 RMK A01 T01390138  RH  099%=      5-min Rain = 0
KPD3 141130Z 29001KT 14/14 A2993 RMK A01 T01380137  RH  099%=      5-min Rain = 0
KPD3 141131Z 29001KT 14/14 A2993 RMK A01 T01360135  RH  099%=      5-min Rain = 0
KPD3 141132Z 29002KT 14/13 A2993 RMK A01 T01360134  RH  099%=      5-min Rain = 0
KPD3 141133Z 29001KT 14/14 A2993 RMK A01 T01360135  RH  099%=      5-min Rain = 0
KPD3 141134Z 29001KT 14/14 A2993 RMK A01 T01360135  RH  099%=      5-min Rain = 0
KPD3 141135Z 29001KT 14/14 A2993 RMK A01 T01360135  RH  099%=      5-min Rain = 0
KPD3 141136Z 29001KT 14/14 A2993 RMK A01 T01360135  RH  099%=      5-min Rain = 0
KPD3 141137Z 30002KT 14/13 A2993 RMK A01 T01350134  RH  099%=      5-min Rain = 0
KPD3 141138Z 30002KT 13/13 A2993 RMK A01 T01330132  RH  099%=      5-min Rain = 0
KPD3 141139Z 29003KT 13/13 A2993 RMK A01 T01330132  RH  099%=      5-min Rain = 0
KPD3 141140Z 29003KT 13/13 A2993 RMK A01 T01330132  RH  099%=      5-min Rain = 0
KPD3 141141Z 29003KT 13/13 A2993 RMK A01 T01330132  RH  099%=      5-min Rain = 0
KPD3 141142Z 28003KT 13/13 A2993 RMK A01 T01330132  RH  099%=      5-min Rain = 0
KPD3 141143Z 28002KT 13/13 A2993 RMK A01 T01330132  RH  099%=      5-min Rain = 0
KPD3 141144Z 29002KT 13/13 A2993 RMK A01 T01340133  RH  099%=      5-min Rain = 0
KPD3 141145Z 30002KT 13/13 A2993 RMK A01 T01340133  RH  099%=      5-min Rain = 0
KPD3 141146Z 30003KT 13/13 A2993 RMK A01 T01330132  RH  099%=      5-min Rain = 0
KPD3 141147Z 29003KT 13/13 A2993 RMK A01 T01340133  RH  099%=      5-min Rain = 0
KPD3 141148Z 29003KT 13/13 A2993 RMK A01 T01340133  RH  099%=      5-min Rain = 0
KPD3 141149Z 29004KT 13/13 A2993 RMK A01 T01340133  RH  099%=      5-min Rain = 0
KPD3 141150Z 29004KT 13/13 A2993 RMK A01 T01330132  RH  099%=      5-min Rain = 0
KPD3 141151Z 29003KT 13/13 A2993 RMK A01 T01320131  RH  099%=      5-min Rain = 0
KPD3 141152Z 30003KT 13/13 A2993 RMK A01 T01320131  RH  099%=      5-min Rain = 0
KPD3 141153Z 30003KT 13/13 A2993 RMK A01 T01320131  RH  099%=      5-min Rain = 0
KPD3 141154Z 29003KT 13/13 A2993 RMK A01 T01320131  RH  099%=      5-min Rain = 0
KPD3 141155Z 29003KT 13/13 A2993 RMK A01 T01320132  RH  099%=      5-min Rain = 0
KPD3 141156Z 29004KT 13/13 A2993 RMK A01 T01320131  RH  099%=      5-min Rain = 0
KPD3 141157Z 30004KT 13/13 A2993 RMK A01 T01310130  RH  099%=      5-min Rain = 0
KPD3 141158Z 30004KT 13/13 A2993 RMK A01 T01310129  RH  099%=      5-min Rain = 0
KPD3 141159Z 29004KT 13/13 A2993 RMK A01 T01300129  RH  099%=      5-min Rain = 0
KPD3 141200Z 29004KT 13/13 A2993 RMK A01 T01300129  RH  099%=      5-min Rain = 0
KPD3 141201Z 30003KT 13/13 A2993 RMK A01 T01310130  RH  099%=      5-min Rain = 0
KPD3 141202Z 30003KT 13/13 A2993 RMK A01 T01310130  RH  099%=      5-min Rain = 0
KPD3 141203Z 30004KT 13/13 A2993 RMK A01 T01320131  RH  099%=      5-min Rain = 0
KPD3 141204Z 29003KT 13/13 A2993 RMK A01 T01310131  RH  099%=      5-min Rain = 0
KPD3 141205Z 29003KT 13/13 A2993 RMK A01 T01310130  RH  099%=      5-min Rain = 0
KPD3 141206Z 29002KT 13/13 A2993 RMK A01 T01310130  RH  099%=      5-min Rain = 0
KPD3 141207Z 29002KT 13/13 A2993 RMK A01 T01310130  RH  099%=      5-min Rain = 0
KPD3 141208Z 29002KT 13/13 A2993 RMK A01 T01310130  RH  099%=      5-min Rain = 0
KPD3 141209Z 28003KT 13/13 A2994 RMK A01 T01310130  RH  099%=      5-min Rain = 0
KPD3 141210Z 28003KT 13/13 A2994 RMK A01 T01310130  RH  099%=      5-min Rain = 0
KPD3 141211Z 28001KT 13/13 A2993 RMK A01 T01320131  RH  099%=      5-min Rain = 0
KPD3 141212Z 28002KT 13/13 A2993 RMK A01 T01330132  RH  099%=      5-min Rain = 0
KPD3 141213Z 28001KT 13/13 A2993 RMK A01 T01330133  RH  099%=      5-min Rain = 0
KPD3 141214Z 27002KT 13/13 A2994 RMK A01 T01340133  RH  099%=      5-min Rain = 0
KPD3 141215Z 25003KT 13/13 A2994 RMK A01 T01340133  RH  099%=      5-min Rain = 0
KPD3 141216Z 26002KT 14/13 A2994 RMK A01 T01350134  RH  099%=      5-min Rain = 0
KPD3 141217Z 27002KT 14/14 A2994 RMK A01 T01350135  RH  099%=      5-min Rain = 0
KPD3 141218Z 27002KT 14/14 A2994 RMK A01 T01360136  RH  099%=      5-min Rain = 0
KPD3 141219Z 27002KT 14/14 A2994 RMK A01 T01370136  RH  099%=      5-min Rain = 0
KPD3 141220Z 27002KT 14/14 A2994 RMK A01 T01390138  RH  099%=      5-min Rain = 0
KPD3 141221Z 26001KT 14/14 A2994 RMK A01 T01400139  RH  099%=      5-min Rain = 0
KPD3 141222Z 26002KT 14/14 A2994 RMK A01 T01410140  RH  099%=      5-min Rain = 0
KPD3 141223Z 25003KT 14/14 A2994 RMK A01 T01410140  RH  099%=      5-min Rain = 0
KPD3 141224Z 24003KT 14/14 A2994 RMK A01 T01420141  RH  099%=      5-min Rain = 0
KPD3 141225Z 24003KT 14/14 A2994 RMK A01 T01430142  RH  099%=      5-min Rain = 0
KPD3 141226Z 23002KT 14/14 A2994 RMK A01 T01440143  RH  099%=      5-min Rain = 0
KPD3 141227Z 23002KT 15/15 A2994 RMK A01 T01460145  RH  099%=      5-min Rain = 0
KPD3 141228Z 23002KT 15/15 A2994 RMK A01 T01480146  RH  099%=      5-min Rain = 0
KPD3 141229Z 23002KT 15/15 A2994 RMK A01 T01500149  RH  099%=      5-min Rain = 0
KPD3 141230Z 23003KT 15/15 A2994 RMK A01 T01520151  RH  099%=      5-min Rain = 0
KPD3 141231Z 22003KT 15/15 A2994 RMK A01 T01540152  RH  099%=      5-min Rain = 0
KPD3 141232Z 22002KT 16/16 A2994 RMK A01 T01560155  RH  099%=      5-min Rain = 0
KPD3 141233Z 22002KT 16/16 A2994 RMK A01 T01580156  RH  099%=      5-min Rain = 0
KPD3 141234Z 20002KT 16/16 A2994 RMK A01 T01590158  RH  099%=      5-min Rain = 0
KPD3 141235Z 20002KT 16/16 A2994 RMK A01 T01610160  RH  099%=      5-min Rain = 0
KPD3 141236Z 21002KT 16/16 A2994 RMK A01 T01630161  RH  099%=      5-min Rain = 0
KPD3 141237Z 23002KT 17/16 A2994 RMK A01 T01650163  RH  099%=      5-min Rain = 0
KPD3 141238Z 23002KT 17/17 A2994 RMK A01 T01660165  RH  099%=      5-min Rain = 0
KPD3 141239Z 22002KT 17/17 A2994 RMK A01 T01670166  RH  099%=      5-min Rain = 0
KPD3 141240Z 23002KT 17/17 A2994 RMK A01 T01680167  RH  099%=      5-min Rain = 0
KPD3 141241Z 22003KT 17/17 A2994 RMK A01 T01700168  RH  099%=      5-min Rain = 0
KPD3 141242Z 22003KT 17/17 A2994 RMK A01 T01710170  RH  099%=      5-min Rain = 0
KPD3 141243Z 21003KT 17/17 A2994 RMK A01 T01710170  RH  099%=      5-min Rain = 0
KPD3 141244Z 20003KT 17/17 A2994 RMK A01 T01720170  RH  099%=      5-min Rain = 0
KPD3 141245Z 19003KT 17/17 A2994 RMK A01 T01720171  RH  099%=      5-min Rain = 0
KPD3 141246Z 19003KT 17/17 A2994 RMK A01 T01730171  RH  099%=      5-min Rain = 0
KPD3 141247Z 19004KT 17/17 A2994 RMK A01 T01720171  RH  099%=      5-min Rain = 0
KPD3 141248Z 19004KT 17/17 A2994 RMK A01 T01730171  RH  099%=      5-min Rain = 0
KPD3 141249Z 20004KT 17/17 A2994 RMK A01 T01720171  RH  099%=      5-min Rain = 0
KPD3 141250Z 20004KT 17/17 A2994 RMK A01 T01730171  RH  099%=      5-min Rain = 0
KPD3 141251Z 19004KT 17/17 A2994 RMK A01 T01730171  RH  099%=      5-min Rain = 0
KPD3 141252Z 19004KT 17/17 A2994 RMK A01 T01730171  RH  099%=      5-min Rain = 0
KPD3 141253Z 19004KT 17/17 A2994 RMK A01 T01730172  RH  099%=      5-min Rain = 0
KPD3 141254Z 20004KT 17/17 A2994 RMK A01 T01730172  RH  099%=      5-min Rain = 0
KPD3 141255Z 21005KT 17/17 A2994 RMK A01 T01730172  RH  099%=      5-min Rain = 0
KPD3 141256Z 20004KT 17/17 A2994 RMK A01 T01730172  RH  099%=      5-min Rain = 0
KPD3 141257Z 20004KT 17/17 A2994 RMK A01 T01730171  RH  099%=      5-min Rain = 0
KPD3 141258Z 20005KT 17/17 A2994 RMK A01 T01730171  RH  099%=      5-min Rain = 0
KPD3 141259Z 20005KT 17/17 A2994 RMK A01 T01730171  RH  099%=      5-min Rain = 0
KPD3 141300Z 20005KT 17/17 A2994 RMK A01 T01730171  RH  099%=      5-min Rain = 0
KPD3 141301Z 20004KT 17/17 A2994 RMK A01 T01730172  RH  099%=      5-min Rain = 0
KPD3 141302Z 20005KT 17/17 A2994 RMK A01 T01730172  RH  099%=      5-min Rain = 0
KPD3 141303Z 20004KT 17/17 A2994 RMK A01 T01730172  RH  099%=      5-min Rain = 0
KPD3 141304Z 20004KT 17/17 A2994 RMK A01 T01730172  RH  099%=      5-min Rain = 0
KPD3 141305Z 20004KT 17/17 A2994 RMK A01 T01740172  RH  099%=      5-min Rain = 0
KPD3 141306Z 19004KT 17/17 A2994 RMK A01 T01740172  RH  099%=      5-min Rain = 0
KPD3 141307Z 19004KT 17/17 A2994 RMK A01 T01740172  RH  099%=      5-min Rain = 0
KPD3 141308Z 19005KT 17/17 A2994 RMK A01 T01730172  RH  099%=      5-min Rain = 0
KPD3 141309Z 20004KT 17/17 A2994 RMK A01 T01730171  RH  099%=      5-min Rain = 0
KPD3 141310Z 20004KT 17/17 A2994 RMK A01 T01730172  RH  099%=      5-min Rain = 0
KPD3 141311Z 20004KT 17/17 A2994 RMK A01 T01730171  RH  099%=      5-min Rain = 0
KPD3 141312Z 20004KT 17/17 A2994 RMK A01 T01730171  RH  099%=      5-min Rain = 0
KPD3 141313Z 19004KT 17/17 A2994 RMK A01 T01740172  RH  099%=      5-min Rain = 0
KPD3 141314Z 20004KT 18/17 A2994 RMK A01 T01750173  RH  099%=      5-min Rain = 0
KPD3 141315Z 19004KT 18/17 A2994 RMK A01 T01760174  RH  099%=      5-min Rain = 0
KPD3 141316Z 19003KT 18/17 A2994 RMK A01 T01770174  RH  099%=      5-min Rain = 0
KPD3 141317Z 18003KT 18/18 A2994 RMK A01 T01780175  RH  098%=      5-min Rain = 0
KPD3 141318Z 19004KT 18/18 A2994 RMK A01 T01790177  RH  098%=      5-min Rain = 0
KPD3 141319Z 20004KT 18/18 A2994 RMK A01 T01810177  RH  098%=      5-min Rain = 0
KPD3 141320Z 20003KT 18/18 A2994 RMK A01 T01810178  RH  098%=      5-min Rain = 0
KPD3 141321Z 19002KT 18/18 A2995 RMK A01 T01810177  RH  097%=      5-min Rain = 0
KPD3 141322Z 19002KT 18/18 A2995 RMK A01 T01810177  RH  097%=      5-min Rain = 0
KPD3 141323Z 19002KT 18/18 A2995 RMK A01 T01820178  RH  097%=      5-min Rain = 0
KPD3 141324Z 19003KT 18/18 A2995 RMK A01 T01830178  RH  097%=      5-min Rain = 0
KPD3 141325Z 19004KT 18/18 A2995 RMK A01 T01830178  RH  096%=      5-min Rain = 0
KPD3 141326Z 19003KT 18/18 A2995 RMK A01 T01840179  RH  097%=      5-min Rain = 0
KPD3 141327Z 18002KT 19/18 A2995 RMK A01 T01850179  RH  097%=      5-min Rain = 0
KPD3 141328Z 18002KT 18/18 A2995 RMK A01 T01840178  RH  096%=      5-min Rain = 0
KPD3 141329Z 17003KT 18/18 A2995 RMK A01 T01840177  RH  096%=      5-min Rain = 0
KPD3 141330Z 18003KT 18/18 A2995 RMK A01 T01830175  RH  095%=      5-min Rain = 0
KPD3 141331Z 18003KT 18/17 A2995 RMK A01 T01820174  RH  095%=      5-min Rain = 0
KPD3 141332Z 16004KT 18/17 A2995 RMK A01 T01810173  RH  095%=      5-min Rain = 0
KPD3 141333Z 16003KT 18/17 A2995 RMK A01 T01810173  RH  095%=      5-min Rain = 0
KPD3 141334Z 16003KT 18/17 A2995 RMK A01 T01820173  RH  095%=      5-min Rain = 0
KPD3 141335Z 16003KT 18/18 A2995 RMK A01 T01830175  RH  095%=      5-min Rain = 0
KPD3 141336Z 16003KT 19/18 A2995 RMK A01 T01850176  RH  095%=      5-min Rain = 0
KPD3 141337Z 16003KT 19/18 A2995 RMK A01 T01860176  RH  094%=      5-min Rain = 0
KPD3 141338Z 17003KT 19/18 A2995 RMK A01 T01870177  RH  094%=      5-min Rain = 0
KPD3 141339Z 16003KT 19/18 A2995 RMK A01 T01870176  RH  093%=      5-min Rain = 0
KPD3 141340Z 15003KT 19/18 A2995 RMK A01 T01880176  RH  093%=      5-min Rain = 0
KPD3 141341Z 16003KT 19/18 A2995 RMK A01 T01890177  RH  092%=      5-min Rain = 0
KPD3 141342Z 17003KT 19/18 A2995 RMK A01 T01900178  RH  093%=      5-min Rain = 0
KPD3 141343Z 17003KT 19/18 A2995 RMK A01 T01910177  RH  091%=      5-min Rain = 0
KPD3 141344Z 16002KT 19/18 A2995 RMK A01 T01910177  RH  091%=      5-min Rain = 0
KPD3 141345Z 16003KT 19/18 A2995 RMK A01 T01920179  RH  092%=      5-min Rain = 0
KPD3 141346Z 18003KT 19/18 A2995 RMK A01 T01940179  RH  091%=      5-min Rain = 0
KPD3 141347Z 16003KT 19/18 A2995 RMK A01 T01940177  RH  090%=      5-min Rain = 0
KPD3 141348Z 17003KT 19/18 A2995 RMK A01 T01940176  RH  089%=      5-min Rain = 0
KPD3 141349Z 18004KT 19/18 A2995 RMK A01 T01940177  RH  090%=      5-min Rain = 0
KPD3 141350Z 15003KT 20/18 A2995 RMK A01 T01950177  RH  089%=      5-min Rain = 0
KPD3 141351Z 15003KT 20/18 A2995 RMK A01 T01960178  RH  090%=      5-min Rain = 0
KPD3 141352Z 14004KT 20/18 A2995 RMK A01 T01980180  RH  089%=      5-min Rain = 0
KPD3 141353Z 16004KT 20/18 A2995 RMK A01 T01980177  RH  088%=      5-min Rain = 0
KPD3 141354Z 16003KT 20/18 A2995 RMK A01 T01980176  RH  087%=      5-min Rain = 0
KPD3 141355Z 16004KT 20/18 A2995 RMK A01 T01980178  RH  088%=      5-min Rain = 0
KPD3 141356Z 16003KT 20/18 A2995 RMK A01 T01990177  RH  087%=      5-min Rain = 0
KPD3 141357Z 17004KT 20/18 A2995 RMK A01 T02000176  RH  086%=      5-min Rain = 0
KPD3 141358Z 18004KT 20/17 A2995 RMK A01 T01990174  RH  085%=      5-min Rain = 0
KPD3 141359Z 16004KT 20/18 A2995 RMK A01 T02000176  RH  086%=      5-min Rain = 0
KPD3 141400Z 18004KT 20/18 A2995 RMK A01 T02010175  RH  085%=      5-min Rain = 0
KPD3 141401Z 16004KT 20/17 A2995 RMK A01 T02020173  RH  084%=      5-min Rain = 0
KPD3 141402Z 15005KT 20/18 A2995 RMK A01 T02020175  RH  084%=      5-min Rain = 0
KPD3 141403Z 15005KT 20/17 A2995 RMK A01 T02040173  RH  083%=      5-min Rain = 0
KPD3 141404Z 16004KT 21/17 A2995 RMK A01 T02050173  RH  082%=      5-min Rain = 0
KPD3 141405Z 17004KT 21/17 A2995 RMK A01 T02050173  RH  081%=      5-min Rain = 0
KPD3 141406Z 17004KT 21/17 A2995 RMK A01 T02060173  RH  081%=      5-min Rain = 0
KPD3 141407Z 16005KT 21/17 A2995 RMK A01 T02060173  RH  081%=      5-min Rain = 0
KPD3 141408Z 18004KT 21/17 A2995 RMK A01 T02070173  RH  081%=      5-min Rain = 0
KPD3 141409Z 18003KT 21/17 A2995 RMK A01 T02080174  RH  081%=      5-min Rain = 0
KPD3 141410Z 15004KT 21/17 A2995 RMK A01 T02100174  RH  080%=      5-min Rain = 0
KPD3 141411Z 18005KT 21/18 A2995 RMK A01 T02110175  RH  080%=      5-min Rain = 0
KPD3 141412Z 19003KT 21/17 A2995 RMK A01 T02120173  RH  079%=      5-min Rain = 0
KPD3 141413Z 15003KT 21/17 A2995 RMK A01 T02130174  RH  078%=      5-min Rain = 0
KPD3 141414Z 17003KT 21/18 A2995 RMK A01 T02140175  RH  078%=      5-min Rain = 0
KPD3 141415Z 18001KT 22/18 A2995 RMK A01 T02160175  RH  077%=      5-min Rain = 0
KPD3 141416Z 17003KT 22/17 A2995 RMK A01 T02170174  RH  077%=      5-min Rain = 0
KPD3 141417Z 18003KT 22/18 A2995 RMK A01 T02180175  RH  076%=      5-min Rain = 0
KPD3 141418Z 18002KT 22/17 A2995 RMK A01 T02190173  RH  075%=      5-min Rain = 0
KPD3 141419Z 16003KT 22/17 A2995 RMK A01 T02190173  RH  075%=      5-min Rain = 0
KPD3 141420Z 17003KT 22/17 A2995 RMK A01 T02190173  RH  075%=      5-min Rain = 0
KPD3 141421Z 17003KT 22/17 A2995 RMK A01 T02200173  RH  075%=      5-min Rain = 0
KPD3 141422Z 20005KT 22/17 A2995 RMK A01 T02210173  RH  074%=      5-min Rain = 0
KPD3 141423Z 19004KT 22/17 A2995 RMK A01 T02210172  RH  074%=      5-min Rain = 0
KPD3 141424Z 17003KT 22/17 A2995 RMK A01 T02210172  RH  074%=      5-min Rain = 0
KPD3 141425Z 16002KT 22/17 A2995 RMK A01 T02220173  RH  074%=      5-min Rain = 0
KPD3 141426Z 18001KT 22/17 A2995 RMK A01 T02220173  RH  074%=      5-min Rain = 0
KPD3 141427Z 22001KT 22/17 A2995 RMK A01 T02230174  RH  073%=      5-min Rain = 0
KPD3 141428Z 24001KT 23/18 A2995 RMK A01 T02250175  RH  073%=      5-min Rain = 0
KPD3 141429Z 19003KT 23/17 A2995 RMK A01 T02250173  RH  072%=      5-min Rain = 0
KPD3 141430Z 18003KT 23/17 A2995 RMK A01 T02260172  RH  072%=      5-min Rain = 0
KPD3 141431Z 19002KT 23/17 A2995 RMK A01 T02270173  RH  072%=      5-min Rain = 0
KPD3 141432Z 18003KT 23/17 A2995 RMK A01 T02270173  RH  071%=      5-min Rain = 0
KPD3 141433Z 18003KT 23/17 A2995 RMK A01 T02290173  RH  071%=      5-min Rain = 0
KPD3 141434Z 19003KT 23/17 A2995 RMK A01 T02300174  RH  070%=      5-min Rain = 0
KPD3 141435Z 19003KT 23/17 A2995 RMK A01 T02300172  RH  070%=      5-min Rain = 0
KPD3 141436Z 20003KT 23/17 A2995 RMK A01 T02310172  RH  070%=      5-min Rain = 0
KPD3 141437Z 22002KT 23/17 A2995 RMK A01 T02310172  RH  070%=      5-min Rain = 0
KPD3 141438Z 21003KT 23/17 A2995 RMK A01 T02310173  RH  070%=      5-min Rain = 0
KPD3 141439Z 18003KT 23/17 A2995 RMK A01 T02310174  RH  070%=      5-min Rain = 0
KPD3 141440Z 13003KT 23/17 A2995 RMK A01 T02340174  RH  069%=      5-min Rain = 0
KPD3 141441Z 14004KT 24/17 A2995 RMK A01 T02350174  RH  068%=      5-min Rain = 0
KPD3 141442Z 14003KT 24/17 A2995 RMK A01 T02360173  RH  068%=      5-min Rain = 0
KPD3 141443Z 14003KT 24/17 A2995 RMK A01 T02360173  RH  068%=      5-min Rain = 0
KPD3 141444Z 12003KT 24/17 A2995 RMK A01 T02360172  RH  067%=      5-min Rain = 0
KPD3 141445Z 15004KT 24/17 A2995 RMK A01 T02370173  RH  067%=      5-min Rain = 0
KPD3 141446Z 17004KT 24/17 A2995 RMK A01 T02390172  RH  066%=      5-min Rain = 0
KPD3 141447Z 19004KT 24/17 A2995 RMK A01 T02400172  RH  066%=      5-min Rain = 0
KPD3 141448Z 19001KT 24/17 A2995 RMK A01 T02400172  RH  066%=      5-min Rain = 0
KPD3 141449Z 18002KT 24/17 A2995 RMK A01 T02400172  RH  066%=      5-min Rain = 0
KPD3 141450Z 15002KT 24/17 A2995 RMK A01 T02420173  RH  066%=      5-min Rain = 0
KPD3 141451Z 16005KT 25/17 A2995 RMK A01 T02450173  RH  064%=      5-min Rain = 0
KPD3 141452Z 18005KT 25/17 A2995 RMK A01 T02470172  RH  063%=      5-min Rain = 0
KPD3 141453Z 18006KT 25/17 A2995 RMK A01 T02460172  RH  063%=      5-min Rain = 0
KPD3 141454Z 16005KT 25/17 A2995 RMK A01 T02460172  RH  063%=      5-min Rain = 0
KPD3 141455Z 17006KT 25/17 A2995 RMK A01 T02470172  RH  063%=      5-min Rain = 0
KPD3 141456Z 18004KT 25/17 A2995 RMK A01 T02490173  RH  063%=      5-min Rain = 0
KPD3 141457Z 15004KT 25/17 A2995 RMK A01 T02510174  RH  062%=      5-min Rain = 0
KPD3 141458Z 18006KT 25/17 A2995 RMK A01 T02520174  RH  062%=      5-min Rain = 0
KPD3 141459Z 16007KT 25/17 A2995 RMK A01 T02530173  RH  061%=      5-min Rain = 0
KPD3 141500Z 17007KT 25/17 A2994 RMK A01 T02530174  RH  061%=      5-min Rain = 0
KPD3 141501Z 17006KT 26/17 A2994 RMK A01 T02560174  RH  060%=      5-min Rain = 0
KPD3 141502Z 14007KT 26/17 A2994 RMK A01 T02560174  RH  060%=      5-min Rain = 0
KPD3 141503Z 15007KT 26/17 A2994 RMK A01 T02560174  RH  061%=      5-min Rain = 0
KPD3 141504Z 18007KT 26/17 A2994 RMK A01 T02560173  RH  060%=      5-min Rain = 0
KPD3 141505Z 17006KT 26/17 A2994 RMK A01 T02570174  RH  060%=      5-min Rain = 0
KPD3 141506Z 17009KT 26/17 A2994 RMK A01 T02570174  RH  060%=      5-min Rain = 0
KPD3 141507Z 17006KT 26/17 A2994 RMK A01 T02590174  RH  059%=      5-min Rain = 0
KPD3 141508Z 18008KT 26/17 A2994 RMK A01 T02600174  RH  059%=      5-min Rain = 0
KPD3 141509Z 18007KT 26/18 A2994 RMK A01 T02630176  RH  059%=      5-min Rain = 0
KPD3 141510Z 18006KT 27/18 A2994 RMK A01 T02680175  RH  057%=      5-min Rain = 0
KPD3 141511Z 17008KT 27/18 A2994 RMK A01 T02690176  RH  057%=      5-min Rain = 0
KPD3 141512Z 17009KT 27/18 A2994 RMK A01 T02700175  RH  056%=      5-min Rain = 0
KPD3 141513Z 18007KT 27/18 A2994 RMK A01 T02720176  RH  056%=      5-min Rain = 0
KPD3 141514Z 17009KT 27/18 A2994 RMK A01 T02730176  RH  055%=      5-min Rain = 0
KPD3 141515Z 17008KT 27/18 A2994 RMK A01 T02730176  RH  055%=      5-min Rain = 0
KPD3 141516Z 17009KT 27/18 A2994 RMK A01 T02730176  RH  055%=      5-min Rain = 0
KPD3 141517Z 17008KT 28/18 A2994 RMK A01 T02750176  RH  055%=      5-min Rain = 0
KPD3 141518Z 19007KT 28/18 A2994 RMK A01 T02760175  RH  054%=      5-min Rain = 0
KPD3 141519Z 18006KT 28/17 A2994 RMK A01 T02750174  RH  054%=      5-min Rain = 0
KPD3 141520Z 18005KT 27/18 A2994 RMK A01 T02740175  RH  055%=      5-min Rain = 0
KPD3 141521Z 19007KT 28/18 A2994 RMK A01 T02750175  RH  054%=      5-min Rain = 0
KPD3 141522Z 18008KT 28/18 A2994 RMK A01 T02770176  RH  054%=      5-min Rain = 0
KPD3 141523Z 19007KT 28/17 A2994 RMK A01 T02790172  RH  052%=      5-min Rain = 0
KPD3 141524Z 17007KT 28/17 A2994 RMK A01 T02780174  RH  053%=      5-min Rain = 0
KPD3 141525Z 15009KT 28/18 A2994 RMK A01 T02800176  RH  053%=      5-min Rain = 0
KPD3 141526Z 15007KT 28/18 A2994 RMK A01 T02810175  RH  053%=      5-min Rain = 0
KPD3 141527Z 16008KT 28/18 A2994 RMK A01 T02810177  RH  053%=      5-min Rain = 0
KPD3 141528Z 17011KT 28/18 A2994 RMK A01 T02840176  RH  052%=      5-min Rain = 0
KPD3 141529Z 16010KT 28/18 A2994 RMK A01 T02820176  RH  052%=      5-min Rain = 0
KPD3 141530Z 18007KT 28/18 A2994 RMK A01 T02820176  RH  052%=      5-min Rain = 0
KPD3 141531Z 15007KT 28/18 A2994 RMK A01 T02810176  RH  053%=      5-min Rain = 0
KPD3 141532Z 17009KT 28/18 A2994 RMK A01 T02800176  RH  053%=      5-min Rain = 0
KPD3 141533Z 17010KT 28/18 A2994 RMK A01 T02800175  RH  053%=      5-min Rain = 0
KPD3 141534Z 18007KT 28/18 A2994 RMK A01 T02810175  RH  053%=      5-min Rain = 0
KPD3 141535Z 19008KT 28/18 A2994 RMK A01 T02800175  RH  053%=      5-min Rain = 0
KPD3 141536Z 21007KT 28/17 A2994 RMK A01 T02780173  RH  053%=      5-min Rain = 0
KPD3 141537Z 20006KT 28/17 A2994 RMK A01 T02770173  RH  053%=      5-min Rain = 0
KPD3 141538Z 21004KT 28/17 A2994 RMK A01 T02760173  RH  053%=      5-min Rain = 0
KPD3 141539Z 17005KT 28/17 A2994 RMK A01 T02760174  RH  054%=      5-min Rain = 0
KPD3 141540Z 17007KT 28/18 A2994 RMK A01 T02760175  RH  054%=      5-min Rain = 0
KPD3 141541Z 18007KT 28/17 A2994 RMK A01 T02770174  RH  054%=      5-min Rain = 0
KPD3 141542Z 18004KT 28/18 A2994 RMK A01 T02770175  RH  054%=      5-min Rain = 0
KPD3 141543Z 13005KT 28/18 A2994 RMK A01 T02780175  RH  054%=      5-min Rain = 0
KPD3 141544Z 13004KT 28/18 A2994 RMK A01 T02790175  RH  053%=      5-min Rain = 0
KPD3 141545Z 15003KT 28/18 A2994 RMK A01 T02790176  RH  053%=      5-min Rain = 0
KPD3 141546Z 13003KT 28/18 A2994 RMK A01 T02800176  RH  053%=      5-min Rain = 0
KPD3 141547Z 15003KT 28/18 A2994 RMK A01 T02810177  RH  053%=      5-min Rain = 0
KPD3 141548Z 16005KT 28/18 A2994 RMK A01 T02840177  RH  052%=      5-min Rain = 0
KPD3 141549Z 15004KT 29/18 A2994 RMK A01 T02860176  RH  051%=      5-min Rain = 0
KPD3 141550Z 13005KT 29/18 A2994 RMK A01 T02870177  RH  051%=      5-min Rain = 0
KPD3 141551Z 14007KT 29/17 A2994 RMK A01 T02880173  RH  050%=      5-min Rain = 0
KPD3 141552Z 14008KT 29/18 A2994 RMK A01 T02880175  RH  050%=      5-min Rain = 0
KPD3 141553Z 15006KT 29/18 A2994 RMK A01 T02910175  RH  050%=      5-min Rain = 0
KPD3 141554Z 16005KT 29/17 A2994 RMK A01 T02930173  RH  048%=      5-min Rain = 0
KPD3 141555Z 18008KT 29/17 A2994 RMK A01 T02940166  RH  046%=      5-min Rain = 0
KPD3 141556Z 17011KT 30/16 A2994 RMK A01 T02960157  RH  043%=      5-min Rain = 0
KPD3 141557Z 20012KT 30/16 A2994 RMK A01 T03000158  RH  042%=      5-min Rain = 0
KPD3 141558Z 21009KT 30/16 A2994 RMK A01 T03040163  RH  043%=      5-min Rain = 0
KPD3 141559Z 22007KT 31/16 A2994 RMK A01 T03060162  RH  042%=      5-min Rain = 0
KPD3 141600Z 21007KT 31/16 A2994 RMK A01 T03060160  RH  041%=      5-min Rain = 0
KPD3 141601Z 19007KT 31/16 A2994 RMK A01 T03070160  RH  041%=      5-min Rain = 0
KPD3 141602Z 17009KT 31/16 A2994 RMK A01 T03070159  RH  041%=      5-min Rain = 0
KPD3 141603Z 18005KT 31/16 A2994 RMK A01 T03050159  RH  041%=      5-min Rain = 0
KPD3 141604Z 16002KT 30/16 A2994 RMK A01 T03030159  RH  042%=      5-min Rain = 0
KPD3 141605Z 21006G12KT 30/16 A2994 RMK A01 T03020160  RH  042%=      5-min Rain = 0
KPD3 141606Z 21008KT 30/15 A2994 RMK A01 T03030153  RH  040%=      5-min Rain = 0
KPD3 141607Z 21009KT 30/15 A2994 RMK A01 T03040153  RH  040%=      5-min Rain = 0
KPD3 141608Z 20007KT 31/15 A2994 RMK A01 T03070151  RH  039%=      5-min Rain = 0
KPD3 141609Z 19004KT 31/15 A2994 RMK A01 T03050149  RH  039%=      5-min Rain = 0
KPD3 141610Z 21002KT 30/15 A2994 RMK A01 T03030150  RH  039%=      5-min Rain = 0
KPD3 141611Z 22006KT 30/15 A2994 RMK A01 T03030152  RH  040%=      5-min Rain = 0
KPD3 141612Z 21012KT 30/15 A2994 RMK A01 T03040152  RH  040%=      5-min Rain = 0
KPD3 141613Z 21008KT 31/15 A2994 RMK A01 T03050149  RH  039%=      5-min Rain = 0
KPD3 141614Z 20006KT 31/15 A2993 RMK A01 T03050150  RH  039%=      5-min Rain = 0
KPD3 141615Z 18008KT 31/15 A2993 RMK A01 T03050152  RH  039%=      5-min Rain = 0
KPD3 141616Z 18009KT 31/16 A2993 RMK A01 T03060156  RH  040%=      5-min Rain = 0
KPD3 141617Z 17005KT 31/15 A2993 RMK A01 T03080153  RH  039%=      5-min Rain = 0
KPD3 141618Z 16005KT 31/16 A2993 RMK A01 T03090155  RH  039%=      5-min Rain = 0
KPD3 141619Z 19006KT 31/16 A2993 RMK A01 T03120155  RH  039%=      5-min Rain = 0
KPD3 141620Z 20007KT 31/15 A2993 RMK A01 T03140150  RH  037%=      5-min Rain = 0
KPD3 141621Z 20010KT 32/15 A2993 RMK A01 T03160148  RH  036%=      5-min Rain = 0
KPD3 141622Z 20005KT 31/15 A2993 RMK A01 T03140146  RH  036%=      5-min Rain = 0
KPD3 141623Z 17004KT 31/15 A2993 RMK A01 T03110147  RH  037%=      5-min Rain = 0
KPD3 141624Z 19009KT 31/14 A2993 RMK A01 T03120143  RH  036%=      5-min Rain = 0
KPD3 141625Z 20012KT 32/14 A2993 RMK A01 T03160141  RH  035%=      5-min Rain = 0
KPD3 141626Z 19007KT 32/14 A2993 RMK A01 T03160137  RH  034%=      5-min Rain = 0
KPD3 141627Z 22006KT 32/14 A2993 RMK A01 T03160140  RH  034%=      5-min Rain = 0
KPD3 141628Z 24009KT 32/14 A2993 RMK A01 T03200143  RH  034%=      5-min Rain = 0
KPD3 141629Z 23010KT 33/13 A2993 RMK A01 T03250133  RH  031%=      5-min Rain = 0
KPD3 141630Z 26009KT 32/14 A2993 RMK A01 T03220137  RH  033%=      5-min Rain = 0
KPD3 141631Z 26005KT 32/14 A2993 RMK A01 T03210138  RH  033%=      5-min Rain = 0
KPD3 141632Z 21004G9KT 32/14 A2992 RMK A01 T03200138  RH  033%=      5-min Rain = 0
KPD3 141633Z 27008KT 32/14 A2993 RMK A01 T03190138  RH  033%=      5-min Rain = 0
KPD3 141634Z 21007KT 32/14 A2993 RMK A01 T03190138  RH  033%=      5-min Rain = 0
KPD3 141635Z 20005KT 32/14 A2993 RMK A01 T03190136  RH  033%=      5-min Rain = 0
KPD3 141636Z 20007KT 32/14 A2993 RMK A01 T03180139  RH  034%=      5-min Rain = 0
KPD3 141637Z 20007KT 32/14 A2993 RMK A01 T03210139  RH  033%=      5-min Rain = 0
KPD3 141638Z 22008KT 32/14 A2993 RMK A01 T03220137  RH  033%=      5-min Rain = 0
KPD3 141639Z 26009KT 32/13 A2993 RMK A01 T03200129  RH  031%=      5-min Rain = 0
KPD3 141640Z 26010KT 32/10 A2993 RMK A01 T03210098  RH  025%=      5-min Rain = 0
KPD3 141641Z 25007KT 32/10 A2993 RMK A01 T03210099  RH  025%=      5-min Rain = 0
KPD3 141642Z 27006KT 32/10 A2993 RMK A01 T03230100  RH  025%=      5-min Rain = 0
KPD3 141643Z 29005KT 32/10 A2993 RMK A01 T03240104  RH  026%=      5-min Rain = 0
KPD3 141644Z 24009KT 33/10 A2993 RMK A01 T03280104  RH  025%=      5-min Rain = 0
KPD3 141645Z 24010KT 33/09 A2993 RMK A01 T03310094  RH  023%=      5-min Rain = 0
KPD3 141646Z 26005KT 33/09 A2993 RMK A01 T03330086  RH  022%=      5-min Rain = 0
KPD3 141647Z 25004KT 33/08 A2993 RMK A01 T03300084  RH  022%=      5-min Rain = 0
KPD3 141648Z 23004KT 33/09 A2993 RMK A01 T03270093  RH  024%=      5-min Rain = 0
KPD3 141649Z 24003KT 33/09 A2993 RMK A01 T03270094  RH  024%=      5-min Rain = 0
KPD3 141650Z 27006KT 33/10 A2993 RMK A01 T03280101  RH  025%=      5-min Rain = 0
KPD3 141651Z 30007KT 33/10 A2992 RMK A01 T03330100  RH  024%=      5-min Rain = 0
KPD3 141652Z 28003KT 33/10 A2992 RMK A01 T03310097  RH  024%=      5-min Rain = 0
KPD3 141653Z 22005KT 33/10 A2992 RMK A01 T03280103  RH  025%=      5-min Rain = 0
KPD3 141654Z 21009KT 33/10 A2992 RMK A01 T03310099  RH  024%=      5-min Rain = 0
KPD3 141655Z 20009KT 33/10 A2992 RMK A01 T03310096  RH  024%=      5-min Rain = 0
KPD3 141656Z 23012KT 33/11 A2992 RMK A01 T03320107  RH  025%=      5-min Rain = 0
KPD3 141657Z 21011KT 33/11 A2992 RMK A01 T03330108  RH  025%=      5-min Rain = 0
KPD3 141658Z 23009KT 33/11 A2992 RMK A01 T03300106  RH  025%=      5-min Rain = 0
KPD3 141659Z 21008KT 33/11 A2992 RMK A01 T03300106  RH  025%=      5-min Rain = 0
KPD3 141700Z 20006KT 33/11 A2992 RMK A01 T03320105  RH  025%=      5-min Rain = 0
KPD3 141701Z 22008KT 34/11 A2992 RMK A01 T03350107  RH  025%=      5-min Rain = 0
KPD3 141702Z 24007KT 34/11 A2992 RMK A01 T03350105  RH  024%=      5-min Rain = 0
KPD3 141703Z 24005KT 33/10 A2992 RMK A01 T03330103  RH  024%=      5-min Rain = 0
KPD3 141704Z 23007KT 33/10 A2992 RMK A01 T03310103  RH  025%=      5-min Rain = 0
KPD3 141705Z 26008G13KT 34/10 A2992 RMK A01 T03350097  RH  023%=      5-min Rain = 0
KPD3 141706Z 24010KT 34/10 A2992 RMK A01 T03430095  RH  022%=      5-min Rain = 0
KPD3 141707Z 25010KT 34/09 A2992 RMK A01 T03430092  RH  022%=      5-min Rain = 0
KPD3 141708Z 23007G12KT 34/09 A2992 RMK A01 T03370093  RH  022%=      5-min Rain = 0
KPD3 141709Z 22013KT 34/09 A2992 RMK A01 T03390089  RH  022%=      5-min Rain = 0
KPD3 141710Z 23011KT 34/09 A2992 RMK A01 T03410092  RH  022%=      5-min Rain = 0
KPD3 141711Z 25009KT 34/09 A2992 RMK A01 T03430093  RH  022%=      5-min Rain = 0
KPD3 141712Z 25013KT 34/09 A2992 RMK A01 T03430087  RH  021%=      5-min Rain = 0
KPD3 141713Z 26012KT 34/08 A2992 RMK A01 T03400082  RH  020%=      5-min Rain = 0
KPD3 141714Z 24013KT 34/09 A2992 RMK A01 T03390089  RH  022%=      5-min Rain = 0
KPD3 141715Z 23012KT 34/09 A2992 RMK A01 T03400094  RH  022%=      5-min Rain = 0
KPD3 141716Z 23012KT 34/10 A2992 RMK A01 T03400097  RH  023%=      5-min Rain = 0
KPD3 141717Z 25012KT 34/09 A2992 RMK A01 T03400094  RH  022%=      5-min Rain = 0
KPD3 141718Z 26009KT 34/09 A2992 RMK A01 T03420091  RH  021%=      5-min Rain = 0
KPD3 141719Z 26011KT 34/09 A2992 RMK A01 T03420088  RH  021%=      5-min Rain = 0
KPD3 141720Z 28010KT 34/09 A2991 RMK A01 T03380091  RH  022%=      5-min Rain = 0
KPD3 141721Z 26009KT 34/10 A2991 RMK A01 T03390097  RH  023%=      5-min Rain = 0
KPD3 141722Z 23009KT 34/10 A2991 RMK A01 T03430099  RH  023%=      5-min Rain = 0
KPD3 141723Z 22013KT 34/08 A2991 RMK A01 T03440082  RH  020%=      5-min Rain = 0
KPD3 141724Z 23012KT 34/08 A2991 RMK A01 T03440077  RH  019%=      5-min Rain = 0
KPD3 141725Z 23012KT 35/08 A2991 RMK A01 T03450075  RH  019%=      5-min Rain = 0
KPD3 141726Z 24011KT 35/08 A2991 RMK A01 T03470075  RH  019%=      5-min Rain = 0
KPD3 141727Z 23013KT 35/07 A2991 RMK A01 T03490066  RH  017%=      5-min Rain = 0
KPD3 141728Z 24010G15KT 35/07 A2991 RMK A01 T03460070  RH  018%=      5-min Rain = 0
KPD3 141729Z 21008KT 35/08 A2991 RMK A01 T03470075  RH  019%=      5-min Rain = 0
KPD3 141730Z 21008KT 35/07 A2991 RMK A01 T03490073  RH  018%=      5-min Rain = 0
KPD3 141731Z 24008KT 34/08 A2991 RMK A01 T03440076  RH  019%=      5-min Rain = 0
KPD3 141732Z 24005KT 34/08 A2991 RMK A01 T03380079  RH  020%=      5-min Rain = 0
KPD3 141733Z 23009KT 34/08 A2991 RMK A01 T03360077  RH  020%=      5-min Rain = 0
KPD3 141734Z 25014KT 34/07 A2991 RMK A01 T03400069  RH  019%=      5-min Rain = 0
KPD3 141735Z 23010KT 34/07 A2991 RMK A01 T03440068  RH  018%=      5-min Rain = 0
KPD3 141736Z 24015KT 35/07 A2991 RMK A01 T03460067  RH  018%=      5-min Rain = 0
KPD3 141737Z 24014KT 35/07 A2991 RMK A01 T03450068  RH  018%=      5-min Rain = 0
KPD3 141738Z 25012KT 34/07 A2991 RMK A01 T03440068  RH  018%=      5-min Rain = 0
KPD3 141739Z 23007G12KT 34/07 A2991 RMK A01 T03420067  RH  018%=      5-min Rain = 0
KPD3 141740Z 22009KT 34/07 A2991 RMK A01 T03390065  RH  018%=      5-min Rain = 0
KPD3 141741Z 22008KT 34/07 A2991 RMK A01 T03410066  RH  018%=      5-min Rain = 0
KPD3 141742Z 25007KT 35/06 A2991 RMK A01 T03460062  RH  017%=      5-min Rain = 0
KPD3 141743Z 27010KT 35/07 A2991 RMK A01 T03480065  RH  017%=      5-min Rain = 0
KPD3 141744Z 27013KT 35/06 A2991 RMK A01 T03490062  RH  017%=      5-min Rain = 0
KPD3 141745Z 26012KT 35/06 A2991 RMK A01 T03470061  RH  017%=      5-min Rain = 0
KPD3 141746Z 24013KT 35/05 A2991 RMK A01 T03470053  RH  016%=      5-min Rain = 0
KPD3 141747Z 24013KT 35/06 A2991 RMK A01 T03480061  RH  017%=      5-min Rain = 0
KPD3 141748Z 24009KT 35/07 A2991 RMK A01 T03460069  RH  018%=      5-min Rain = 0
KPD3 141749Z 24007KT 35/07 A2991 RMK A01 T03460069  RH  018%=      5-min Rain = 0
KPD3 141750Z 25009KT 35/07 A2991 RMK A01 T03470069  RH  018%=      5-min Rain = 0
KPD3 141751Z 24010KT 35/07 A2991 RMK A01 T03470069  RH  018%=      5-min Rain = 0
KPD3 141752Z 24012G17KT 35/06 A299 RMK A01 T03480059  RH  017%=      5-min Rain = 0
KPD3 141753Z 23012KT 35/05 A2991 RMK A01 T03500046  RH  015%=      5-min Rain = 0
KPD3 141754Z 24010KT 35/05 A299 RMK A01 T03500050  RH  016%=      5-min Rain = 0
KPD3 141755Z 23016KT 35/06 A299 RMK A01 T03500059  RH  017%=      5-min Rain = 0
KPD3 141756Z 24015KT 35/06 A299 RMK A01 T03520058  RH  016%=      5-min Rain = 0
KPD3 141757Z 25014KT 36/06 A299 RMK A01 T03550057  RH  016%=      5-min Rain = 0
KPD3 141758Z 24011KT 35/06 A299 RMK A01 T03540059  RH  016%=      5-min Rain = 0
KPD3 141759Z 24012G17KT 35/06 A299 RMK A01 T03540060  RH  016%=      5-min Rain = 0
KPD3 141800Z 24008KT 35/06 A299 RMK A01 T03530061  RH  017%=      5-min Rain = 0
KPD3 141801Z 25009G16KT 35/06 A299 RMK A01 T03510063  RH  017%=      5-min Rain = 0
KPD3 141802Z 25011KT 35/07 A299 RMK A01 T03500072  RH  018%=      5-min Rain = 0
KPD3 141803Z 24010KT 35/08 A299 RMK A01 T03510075  RH  018%=      5-min Rain = 0
KPD3 141804Z 23011KT 35/07 A299 RMK A01 T03530067  RH  017%=      5-min Rain = 0
KPD3 141805Z 22007KT 35/06 A299 RMK A01 T03530064  RH  017%=      5-min Rain = 0
KPD3 141806Z 26007G13KT 35/07 A299 RMK A01 T03530065  RH  017%=      5-min Rain = 0
KPD3 141807Z 27011KT 35/06 A299 RMK A01 T03530060  RH  016%=      5-min Rain = 0
KPD3 141808Z 28010KT 35/06 A299 RMK A01 T03520056  RH  016%=      5-min Rain = 0
KPD3 141809Z 27010KT 35/06 A299 RMK A01 T03520059  RH  016%=      5-min Rain = 0
KPD3 141810Z 27012KT 35/06 A299 RMK A01 T03520056  RH  016%=      5-min Rain = 0
KPD3 141811Z 23014KT 35/06 A299 RMK A01 T03540055  RH  016%=      5-min Rain = 0
KPD3 141812Z 23014KT 35/05 A299 RMK A01 T03540054  RH  016%=      5-min Rain = 0
KPD3 141813Z 23015KT 35/06 A299 RMK A01 T03530056  RH  016%=      5-min Rain = 0
KPD3 141814Z 24014KT 35/05 A299 RMK A01 T03530054  RH  016%=      5-min Rain = 0
KPD3 141815Z 22012KT 35/06 A299 RMK A01 T03530058  RH  016%=      5-min Rain = 0
KPD3 141816Z 23012KT 36/06 A299 RMK A01 T03550055  RH  016%=      5-min Rain = 0
KPD3 141817Z 24009KT 35/06 A299 RMK A01 T03500060  RH  017%=      5-min Rain = 0
KPD3 141818Z 24008G13KT 35/06 A299 RMK A01 T03470060  RH  017%=      5-min Rain = 0
KPD3 141819Z 24005KT 35/06 A299 RMK A01 T03450062  RH  017%=      5-min Rain = 0
KPD3 141820Z 24003KT 35/06 A299 RMK A01 T03460057  RH  017%=      5-min Rain = 0
KPD3 141821Z 23005KT 35/06 A2989 RMK A01 T03460062  RH  017%=      5-min Rain = 0
KPD3 141822Z 24008KT 35/06 A2989 RMK A01 T03480057  RH  016%=      5-min Rain = 0
KPD3 141823Z 23008KT 35/05 A2989 RMK A01 T03510051  RH  016%=      5-min Rain = 0
KPD3 141824Z 23010KT 35/06 A2989 RMK A01 T03540055  RH  016%=      5-min Rain = 0
KPD3 141825Z 21011KT 36/06 A2989 RMK A01 T03580059  RH  016%=      5-min Rain = 0
KPD3 141826Z 23011KT 36/06 A2989 RMK A01 T03580060  RH  016%=      5-min Rain = 0
KPD3 141827Z 25010KT 36/06 A2989 RMK A01 T03590061  RH  016%=      5-min Rain = 0
KPD3 141828Z 24009KT 36/07 A2989 RMK A01 T03580066  RH  017%=      5-min Rain = 0
KPD3 141829Z 27010KT 36/07 A2989 RMK A01 T03620069  RH  017%=      5-min Rain = 0
KPD3 141830Z 27011KT 36/06 A2989 RMK A01 T03600064  RH  016%=      5-min Rain = 0
KPD3 141831Z 28006KT 35/06 A2989 RMK A01 T03530062  RH  017%=      5-min Rain = 0
KPD3 141832Z 26003KT 35/06 A2989 RMK A01 T03490062  RH  017%=      5-min Rain = 0
KPD3 141833Z 29004KT 35/06 A2989 RMK A01 T03480063  RH  017%=      5-min Rain = 0
KPD3 141834Z 31004KT 35/07 A2989 RMK A01 T03500067  RH  017%=      5-min Rain = 0
KPD3 141835Z 25007KT 35/07 A2989 RMK A01 T03540065  RH  017%=      5-min Rain = 0
KPD3 141836Z 28009KT 36/06 A2989 RMK A01 T03560060  RH  016%=      5-min Rain = 0
KPD3 141837Z 21016G23KT 36/07 A2988 RMK A01 T03580067  RH  017%=      5-min Rain = 0
KPD3 141838Z 20012KT 36/07 A2989 RMK A01 T03620066  RH  016%=      5-min Rain = 0
KPD3 141839Z 20011KT 37/06 A2989 RMK A01 T03670063  RH  015%=      5-min Rain = 0
KPD3 141840Z 21013KT 37/06 A2989 RMK A01 T03680063  RH  015%=      5-min Rain = 0
KPD3 141841Z 20010KT 36/06 A2989 RMK A01 T03630063  RH  016%=      5-min Rain = 0
KPD3 141842Z 20011KT 36/06 A2989 RMK A01 T03580063  RH  016%=      5-min Rain = 0
KPD3 141843Z 21008KT 35/06 A2989 RMK A01 T03530061  RH  016%=      5-min Rain = 0
KPD3 141844Z 23006KT 35/06 A2989 RMK A01 T03490061  RH  017%=      5-min Rain = 0
KPD3 141845Z 24007KT 35/06 A2988 RMK A01 T03470064  RH  017%=      5-min Rain = 0
KPD3 141846Z 24005KT 35/07 A2988 RMK A01 T03460065  RH  018%=      5-min Rain = 0
KPD3 141847Z 20004KT 35/06 A2988 RMK A01 T03450064  RH  018%=      5-min Rain = 0
KPD3 141848Z 20002KT 35/06 A2988 RMK A01 T03460063  RH  017%=      5-min Rain = 0
KPD3 141849Z 20006KT 35/07 A2988 RMK A01 T03490068  RH  018%=      5-min Rain = 0
KPD3 141850Z 19010KT 35/07 A2988 RMK A01 T03530065  RH  017%=      5-min Rain = 0
KPD3 141851Z 20008KT 36/07 A2988 RMK A01 T03560066  RH  017%=      5-min Rain = 0
KPD3 141852Z 21011KT 36/07 A2988 RMK A01 T03570066  RH  017%=      5-min Rain = 0
KPD3 141853Z 26009KT 36/07 A2988 RMK A01 T03630066  RH  016%=      5-min Rain = 0
KPD3 141854Z 24010G15KT 36/07 A2988 RMK A01 T03610065  RH  016%=      5-min Rain = 0
KPD3 141855Z 24013KT 36/06 A2988 RMK A01 T03600064  RH  016%=      5-min Rain = 0
KPD3 141856Z 25015KT 36/07 A2988 RMK A01 T03620069  RH  016%=      5-min Rain = 0
KPD3 141857Z 26013KT 36/07 A2988 RMK A01 T03640066  RH  016%=      5-min Rain = 0
KPD3 141858Z 25011KT 36/07 A2988 RMK A01 T03600066  RH  016%=      5-min Rain = 0
KPD3 141859Z 24010KT 37/08 A2988 RMK A01 T03660075  RH  017%=      5-min Rain = 0
KPD3 141900Z 24009KT 37/07 A2988 RMK A01 T03720070  RH  016%=      5-min Rain = 0
KPD3 141901Z 23008KT 37/07 A2988 RMK A01 T03670066  RH  016%=      5-min Rain = 0
KPD3 141902Z 24010KT 37/07 A2988 RMK A01 T03650070  RH  016%=      5-min Rain = 0
KPD3 141903Z 23005KT 37/07 A2988 RMK A01 T03650069  RH  016%=      5-min Rain = 0
KPD3 141904Z 20002KT 36/07 A2988 RMK A01 T03600066  RH  016%=      5-min Rain = 0
KPD3 141905Z 24011KT 36/07 A2988 RMK A01 T03570066  RH  017%=      5-min Rain = 0
KPD3 141906Z 26007KT 35/06 A2988 RMK A01 T03530064  RH  017%=      5-min Rain = 0
KPD3 141907Z 27005KT 35/06 A2988 RMK A01 T03500064  RH  017%=      5-min Rain = 0
KPD3 141908Z 23004KT 35/07 A2988 RMK A01 T03470065  RH  017%=      5-min Rain = 0
KPD3 141909Z 21007KT 35/06 A2988 RMK A01 T03470063  RH  017%=      5-min Rain = 0
KPD3 141910Z 19009KT 35/07 A2988 RMK A01 T03510071  RH  018%=      5-min Rain = 0
KPD3 141911Z 20011KT 36/07 A2988 RMK A01 T03570073  RH  018%=      5-min Rain = 0
KPD3 141912Z 19010KT 36/07 A2988 RMK A01 T03570068  RH  017%=      5-min Rain = 0
KPD3 141913Z 20011KT 36/07 A2988 RMK A01 T03550069  RH  017%=      5-min Rain = 0
KPD3 141914Z 21012KT 36/07 A2988 RMK A01 T03560072  RH  017%=      5-min Rain = 0
KPD3 141915Z 21010KT 36/07 A2988 RMK A01 T03570070  RH  017%=      5-min Rain = 0
KPD3 141916Z 25010KT 36/07 A2988 RMK A01 T03560073  RH  018%=      5-min Rain = 0
KPD3 141917Z 26010KT 36/07 A2988 RMK A01 T03560072  RH  017%=      5-min Rain = 0
KPD3 141918Z 25011KT 36/07 A2987 RMK A01 T03570071  RH  017%=      5-min Rain = 0
KPD3 141919Z 24009KT 36/08 A2987 RMK A01 T03590075  RH  017%=      5-min Rain = 0
KPD3 141920Z 22012G19KT 37/08 A2987 RMK A01 T03660078  RH  017%=      5-min Rain = 0
KPD3 141921Z 21013KT 37/07 A2988 RMK A01 T03730074  RH  016%=      5-min Rain = 0
KPD3 141922Z 20009KT 37/07 A2988 RMK A01 T03680069  RH  016%=      5-min Rain = 0
KPD3 141923Z 21009KT 36/07 A2988 RMK A01 T03610065  RH  016%=      5-min Rain = 0
KPD3 141924Z 18010KT 36/07 A2988 RMK A01 T03560069  RH  017%=      5-min Rain = 0
KPD3 141925Z 18009KT 36/07 A2988 RMK A01 T03550071  RH  017%=      5-min Rain = 0
KPD3 141926Z 20008KT 35/07 A2988 RMK A01 T03540069  RH  017%=      5-min Rain = 0
KPD3 141927Z 22010KT 36/07 A2987 RMK A01 T03570067  RH  017%=      5-min Rain = 0
KPD3 141928Z 22010KT 36/07 A2987 RMK A01 T03580068  RH  017%=      5-min Rain = 0
KPD3 141929Z 21010KT 36/07 A2987 RMK A01 T03580068  RH  017%=      5-min Rain = 0
KPD3 141930Z 20010KT 36/07 A2987 RMK A01 T03570067  RH  017%=      5-min Rain = 0
KPD3 141931Z 19011KT 36/07 A2987 RMK A01 T03550065  RH  017%=      5-min Rain = 0
KPD3 141932Z 18009KT 35/07 A2987 RMK A01 T03510065  RH  017%=      5-min Rain = 0
KPD3 141933Z 19008KT 35/07 A2987 RMK A01 T03490066  RH  017%=      5-min Rain = 0
KPD3 141934Z 20012KT 35/07 A2987 RMK A01 T03500067  RH  018%=      5-min Rain = 0
KPD3 141935Z 20013KT 35/07 A2987 RMK A01 T03520068  RH  017%=      5-min Rain = 0
KPD3 141936Z 19013KT 35/07 A2987 RMK A01 T03520068  RH  017%=      5-min Rain = 0
KPD3 141937Z 18014KT 35/07 A2987 RMK A01 T03520066  RH  017%=      5-min Rain = 0
KPD3 141938Z 18011KT 35/06 A2987 RMK A01 T03510064  RH  017%=      5-min Rain = 0
KPD3 141939Z 18014KT 35/06 A2987 RMK A01 T03510064  RH  017%=      5-min Rain = 0
KPD3 141940Z 19017KT 36/07 A2987 RMK A01 T03550068  RH  017%=      5-min Rain = 0
KPD3 141941Z 20016KT 36/07 A2987 RMK A01 T03570066  RH  017%=      5-min Rain = 0
KPD3 141942Z 20011KT 36/06 A2987 RMK A01 T03550064  RH  017%=      5-min Rain = 0
KPD3 141943Z 19014KT 35/06 A2987 RMK A01 T03540063  RH  017%=      5-min Rain = 0
KPD3 141944Z 19010KT 35/06 A2987 RMK A01 T03530062  RH  017%=      5-min Rain = 0
KPD3 141945Z 18013KT 35/06 A2987 RMK A01 T03510064  RH  017%=      5-min Rain = 0
KPD3 141946Z 18013KT 35/07 A2987 RMK A01 T03520065  RH  017%=      5-min Rain = 0
KPD3 141947Z 18014KT 35/07 A2987 RMK A01 T03520065  RH  017%=      5-min Rain = 0
KPD3 141948Z 20013KT 35/06 A2987 RMK A01 T03520064  RH  017%=      5-min Rain = 0
KPD3 141949Z 19015KT 35/06 A2987 RMK A01 T03510064  RH  017%=      5-min Rain = 0
KPD3 141950Z 19014KT 35/07 A2987 RMK A01 T03520068  RH  017%=      5-min Rain = 0
KPD3 141951Z 19011KT 35/07 A2987 RMK A01 T03530072  RH  018%=      5-min Rain = 0
KPD3 141952Z 20010G15KT 35/07 A2987 RMK A01 T03530072  RH  018%=      5-min Rain = 0
KPD3 141953Z 20012KT 35/07 A2987 RMK A01 T03530070  RH  018%=      5-min Rain = 0
KPD3 141954Z 22011G16KT 35/07 A2987 RMK A01 T03540072  RH  018%=      5-min Rain = 0
KPD3 141955Z 24009G14KT 35/08 A2987 RMK A01 T03540077  RH  018%=      5-min Rain = 0
KPD3 141956Z 23007KT 36/08 A2986 RMK A01 T03550078  RH  018%=      5-min Rain = 0
KPD3 141957Z 22007KT 35/08 A2986 RMK A01 T03540077  RH  018%=      5-min Rain = 0
KPD3 141958Z 22012KT 35/07 A2986 RMK A01 T03530073  RH  018%=      5-min Rain = 0
KPD3 141959Z 22013KT 35/07 A2986 RMK A01 T03530071  RH  018%=      5-min Rain = 0
KPD3 142000Z 23012KT 35/07 A2986 RMK A01 T03540072  RH  018%=      5-min Rain = 0
KPD3 142001Z 23015KT 35/07 A2986 RMK A01 T03540067  RH  017%=      5-min Rain = 0
KPD3 142002Z 23013KT 35/07 A2986 RMK A01 T03510066  RH  017%=      5-min Rain = 0
KPD3 142003Z 24012KT 35/07 A2986 RMK A01 T03500067  RH  017%=      5-min Rain = 0
KPD3 142004Z 23010KT 35/07 A2986 RMK A01 T03500070  RH  018%=      5-min Rain = 0
KPD3 142005Z 23011KT 35/07 A2986 RMK A01 T03490065  RH  017%=      5-min Rain = 0
KPD3 142006Z 22011KT 35/06 A2986 RMK A01 T03480063  RH  017%=      5-min Rain = 0
KPD3 142007Z 21010KT 35/06 A2986 RMK A01 T03490060  RH  017%=      5-min Rain = 0
KPD3 142008Z 23010KT 35/06 A2986 RMK A01 T03490059  RH  017%=      5-min Rain = 0
KPD3 142009Z 24014KT 35/06 A2986 RMK A01 T03490063  RH  017%=      5-min Rain = 0
KPD3 142010Z 24015KT 35/07 A2986 RMK A01 T03490066  RH  017%=      5-min Rain = 0
KPD3 142011Z 24011KT 35/07 A2986 RMK A01 T03530071  RH  018%=      5-min Rain = 0
KPD3 142012Z 23014KT 36/07 A2986 RMK A01 T03590072  RH  017%=      5-min Rain = 0
KPD3 142013Z 23016KT 36/07 A2986 RMK A01 T03590068  RH  017%=      5-min Rain = 0
KPD3 142014Z 24012KT 36/07 A2986 RMK A01 T03560068  RH  017%=      5-min Rain = 0
KPD3 142015Z 24011KT 36/07 A2986 RMK A01 T03550065  RH  017%=      5-min Rain = 0
KPD3 142016Z 24011KT 35/06 A2986 RMK A01 T03530061  RH  016%=      5-min Rain = 0
KPD3 142017Z 23013KT 36/05 A2986 RMK A01 T03550053  RH  015%=      5-min Rain = 0
KPD3 142018Z 25012KT 36/05 A2986 RMK A01 T03560047  RH  015%=      5-min Rain = 0
KPD3 142019Z 23011KT 35/05 A2986 RMK A01 T03540051  RH  015%=      5-min Rain = 0
KPD3 142020Z 23013KT 36/05 A2986 RMK A01 T03560054  RH  015%=      5-min Rain = 0
KPD3 142021Z 24012KT 36/06 A2985 RMK A01 T03590055  RH  015%=      5-min Rain = 0
KPD3 142022Z 25015KT 37/06 A2985 RMK A01 T03660060  RH  015%=      5-min Rain = 0
KPD3 142023Z 24019KT 37/06 A2985 RMK A01 T03690058  RH  015%=      5-min Rain = 0
KPD3 142024Z 24016KT 37/06 A2985 RMK A01 T03680057  RH  015%=      5-min Rain = 0
KPD3 142025Z 24016KT 37/06 A2985 RMK A01 T03650057  RH  015%=      5-min Rain = 0
KPD3 142026Z 22014KT 36/07 A2985 RMK A01 T03640066  RH  016%=      5-min Rain = 0
KPD3 142027Z 21012KT 37/07 A2985 RMK A01 T03650071  RH  016%=      5-min Rain = 0
KPD3 142028Z 24014KT 37/07 A2985 RMK A01 T03670068  RH  016%=      5-min Rain = 0
KPD3 142029Z 24013KT 37/07 A2985 RMK A01 T03670070  RH  016%=      5-min Rain = 0
KPD3 142030Z 24015KT 36/07 A2985 RMK A01 T03630071  RH  017%=      5-min Rain = 0
KPD3 142031Z 22018KT 36/07 A2985 RMK A01 T03620072  RH  017%=      5-min Rain = 0
KPD3 142032Z 23014KT 36/07 A2985 RMK A01 T03620074  RH  017%=      5-min Rain = 0
KPD3 142033Z 23012KT 36/08 A2985 RMK A01 T03600075  RH  017%=      5-min Rain = 0
KPD3 142034Z 22016KT 36/08 A2985 RMK A01 T03610076  RH  018%=      5-min Rain = 0
KPD3 142035Z 23014G19KT 36/07 A2984 RMK A01 T03620074  RH  017%=      5-min Rain = 0
KPD3 142036Z 24016KT 36/08 A2984 RMK A01 T03640077  RH  017%=      5-min Rain = 0
KPD3 142037Z 24012KT 36/08 A2985 RMK A01 T03610075  RH  017%=      5-min Rain = 0
KPD3 142038Z 22010KT 36/07 A2984 RMK A01 T03610073  RH  017%=      5-min Rain = 0
KPD3 142039Z 23009KT 36/08 A2984 RMK A01 T03600077  RH  018%=      5-min Rain = 0
KPD3 142040Z 23012KT 36/08 A2984 RMK A01 T03630078  RH  018%=      5-min Rain = 0
KPD3 142041Z 22009KT 36/07 A2984 RMK A01 T03600074  RH  017%=      5-min Rain = 0
KPD3 142042Z 22011KT 36/07 A2984 RMK A01 T03550072  RH  018%=      5-min Rain = 0
KPD3 142043Z 22010KT 35/07 A2984 RMK A01 T03530071  RH  018%=      5-min Rain = 0
KPD3 142044Z 21011KT 35/07 A2984 RMK A01 T03530073  RH  018%=      5-min Rain = 0
KPD3 142045Z 22010KT 35/08 A2984 RMK A01 T03530077  RH  018%=      5-min Rain = 0
KPD3 142046Z 23010G17KT 36/08 A2984 RMK A01 T03570081  RH  018%=      5-min Rain = 0
KPD3 142047Z 23017KT 36/09 A2983 RMK A01 T03600086  RH  019%=      5-min Rain = 0
KPD3 142048Z 21009KT 37/09 A2983 RMK A01 T03650086  RH  018%=      5-min Rain = 0
KPD3 142049Z 23009KT 37/09 A2983 RMK A01 T03680089  RH  018%=      5-min Rain = 0
KPD3 142050Z 23011G16KT 37/09 A2983 RMK A01 T03720090  RH  018%=      5-min Rain = 0
KPD3 142051Z 22012G18KT 37/08 A2983 RMK A01 T03690084  RH  018%=      5-min Rain = 0
KPD3 142052Z 23015KT 37/09 A2983 RMK A01 T03650085  RH  018%=      5-min Rain = 0
KPD3 142053Z 22013KT 36/09 A2983 RMK A01 T03640086  RH  018%=      5-min Rain = 0
KPD3 142054Z 23013KT 37/08 A2983 RMK A01 T03650083  RH  018%=      5-min Rain = 0
KPD3 142055Z 25010KT 36/08 A2983 RMK A01 T03640084  RH  018%=      5-min Rain = 0
KPD3 142056Z 24008G13KT 36/08 A2983 RMK A01 T03630084  RH  018%=      5-min Rain = 0
KPD3 142057Z 23009G15KT 36/08 A2983 RMK A01 T03630083  RH  018%=      5-min Rain = 0
KPD3 142058Z 25015KT 36/08 A2983 RMK A01 T03620083  RH  018%=      5-min Rain = 0
KPD3 142059Z 24014G19KT 36/08 A2982 RMK A01 T03630084  RH  018%=      5-min Rain = 0
KPD3 142100Z 25014KT 37/08 A2982 RMK A01 T03660084  RH  018%=      5-min Rain = 0
KPD3 142101Z 25014KT 37/08 A2982 RMK A01 T03660084  RH  018%=      5-min Rain = 0
KPD3 142102Z 24012KT 36/08 A2982 RMK A01 T03630082  RH  018%=      5-min Rain = 0
KPD3 142103Z 24016KT 37/08 A2982 RMK A01 T03650083  RH  018%=      5-min Rain = 0
KPD3 142104Z 24012KT 37/08 A2982 RMK A01 T03660079  RH  017%=      5-min Rain = 0
KPD3 142105Z 23013KT 37/08 A2982 RMK A01 T03650080  RH  018%=      5-min Rain = 0
KPD3 142106Z 22011KT 37/08 A2981 RMK A01 T03660079  RH  017%=      5-min Rain = 0
KPD3 142107Z 23014KT 37/08 A2981 RMK A01 T03650081  RH  018%=      5-min Rain = 0
KPD3 142108Z 23016G21KT 37/09 A2981 RMK A01 T03710087  RH  018%=      5-min Rain = 0
KPD3 142109Z 22018KT 38/08 A2981 RMK A01 T03750083  RH  017%=      5-min Rain = 0
KPD3 142110Z 22015KT 37/08 A2981 RMK A01 T03720083  RH  017%=      5-min Rain = 0
KPD3 142111Z 22014KT 37/08 A2981 RMK A01 T03720084  RH  017%=      5-min Rain = 0
KPD3 142112Z 21010KT 37/08 A2981 RMK A01 T03710082  RH  017%=      5-min Rain = 0
KPD3 142113Z 20007KT 37/08 A2981 RMK A01 T03690083  RH  018%=      5-min Rain = 0
KPD3 142114Z 19008KT 37/08 A2981 RMK A01 T03690080  RH  017%=      5-min Rain = 0
KPD3 142115Z 23012G18KT 37/08 A298 RMK A01 T03660079  RH  017%=      5-min Rain = 0
KPD3 142116Z 24016KT 37/08 A298 RMK A01 T03660077  RH  017%=      5-min Rain = 0
KPD3 142117Z 25010KT 36/08 A2981 RMK A01 T03640077  RH  017%=      5-min Rain = 0
KPD3 142118Z 24013KT 36/08 A298 RMK A01 T03620075  RH  017%=      5-min Rain = 0
KPD3 142119Z 24012G17KT 36/07 A2981 RMK A01 T03630074  RH  017%=      5-min Rain = 0
KPD3 142120Z 23013KT 36/08 A2981 RMK A01 T03630079  RH  018%=      5-min Rain = 0
KPD3 142121Z 21010KT 37/08 A2981 RMK A01 T03660077  RH  017%=      5-min Rain = 0
KPD3 142122Z 20008G15KT 37/08 A298 RMK A01 T03680075  RH  017%=      5-min Rain = 0
KPD3 142123Z 19015KT 37/08 A298 RMK A01 T03670077  RH  017%=      5-min Rain = 0
KPD3 142124Z 21011KT 37/08 A298 RMK A01 T03690078  RH  017%=      5-min Rain = 0
KPD3 142125Z 20013KT 37/08 A298 RMK A01 T03710077  RH  017%=      5-min Rain = 0
KPD3 142126Z 18015KT 37/07 A298 RMK A01 T03710074  RH  016%=      5-min Rain = 0
KPD3 142127Z 18015KT 37/07 A298 RMK A01 T03670074  RH  017%=      5-min Rain = 0
KPD3 142128Z 19012KT 36/08 A298 RMK A01 T03640075  RH  017%=      5-min Rain = 0
KPD3 142129Z 18010KT 37/08 A298 RMK A01 T03660075  RH  017%=      5-min Rain = 0
KPD3 142130Z 16010KT 37/08 A298 RMK A01 T03680075  RH  017%=      5-min Rain = 0
KPD3 142131Z 16009KT 37/08 A298 RMK A01 T03680075  RH  017%=      5-min Rain = 0
KPD3 142132Z 18006KT 37/08 A298 RMK A01 T03680075  RH  017%=      5-min Rain = 0
KPD3 142133Z 20007KT 37/08 A298 RMK A01 T03670075  RH  017%=      5-min Rain = 0
KPD3 142134Z 19006KT 37/08 A298 RMK A01 T03680077  RH  017%=      5-min Rain = 0
KPD3 142135Z 20006KT 37/07 A298 RMK A01 T03700074  RH  016%=      5-min Rain = 0
KPD3 142136Z 25004KT 37/07 A298 RMK A01 T03670070  RH  016%=      5-min Rain = 0
KPD3 142137Z 20004KT 37/07 A298 RMK A01 T03660068  RH  016%=      5-min Rain = 0
KPD3 142138Z 15004KT 37/07 A298 RMK A01 T03650072  RH  017%=      5-min Rain = 0
KPD3 142139Z 11005KT 36/08 A2981 RMK A01 T03640082  RH  018%=      5-min Rain = 0
KPD3 142140Z 14006KT 36/09 A2981 RMK A01 T03640094  RH  019%=      5-min Rain = 0
KPD3 142141Z 13012G17KT 36/11 A2981 RMK A01 T03630110  RH  022%=      5-min Rain = 0
KPD3 142142Z 11013KT 36/12 A2981 RMK A01 T03560124  RH  025%=      5-min Rain = 0
KPD3 142143Z 10011KT 34/12 A2981 RMK A01 T03420122  RH  026%=      5-min Rain = 0
KPD3 142144Z 11011KT 34/12 A298 RMK A01 T03370122  RH  027%=      5-min Rain = 0
KPD3 142145Z 10013KT 34/12 A298 RMK A01 T03410121  RH  026%=      5-min Rain = 0
KPD3 142146Z 10013KT 34/12 A298 RMK A01 T03410122  RH  027%=      5-min Rain = 0
KPD3 142147Z 10014KT 34/12 A298 RMK A01 T03400124  RH  027%=      5-min Rain = 0
KPD3 142148Z 10012KT 34/12 A298 RMK A01 T03390123  RH  027%=      5-min Rain = 0
KPD3 142149Z 09013KT 34/13 A298 RMK A01 T03380125  RH  028%=      5-min Rain = 0
KPD3 142150Z 08011KT 34/13 A298 RMK A01 T03370125  RH  028%=      5-min Rain = 0
KPD3 142151Z 10010KT 34/13 A298 RMK A01 T03360125  RH  028%=      5-min Rain = 0
KPD3 142152Z 08011KT 34/13 A298 RMK A01 T03350125  RH  028%=      5-min Rain = 0
KPD3 142153Z 08008G15KT 33/12 A2979 RMK A01 T03330123  RH  028%=      5-min Rain = 0
KPD3 142154Z 11013KT 33/12 A2979 RMK A01 T03330119  RH  027%=      5-min Rain = 0
KPD3 142155Z 10013KT 34/12 A2979 RMK A01 T03360119  RH  027%=      5-min Rain = 0
KPD3 142156Z 10011KT 34/12 A2979 RMK A01 T03360118  RH  027%=      5-min Rain = 0
KPD3 142157Z 10008KT 33/12 A2979 RMK A01 T03340117  RH  027%=      5-min Rain = 0
KPD3 142158Z 10014G19KT 34/12 A2979 RMK A01 T03350119  RH  027%=      5-min Rain = 0
KPD3 142159Z 10016KT 34/12 A2979 RMK A01 T03370122  RH  027%=      5-min Rain = 0
KPD3 142200Z 10015KT 33/12 A2979 RMK A01 T03340120  RH  027%=      5-min Rain = 0
KPD3 142201Z 09013KT 33/12 A2979 RMK A01 T03300121  RH  028%=      5-min Rain = 0
KPD3 142202Z 10015KT 33/12 A2979 RMK A01 T03300118  RH  028%=      5-min Rain = 0
KPD3 142203Z 10014KT 33/12 A2979 RMK A01 T03330119  RH  027%=      5-min Rain = 0
KPD3 142204Z 09016KT 33/12 A2979 RMK A01 T03340119  RH  027%=      5-min Rain = 0
KPD3 142205Z 09016KT 33/12 A2979 RMK A01 T03320116  RH  027%=      5-min Rain = 0
KPD3 142206Z 09014KT 33/11 A2979 RMK A01 T03310113  RH  026%=      5-min Rain = 0
KPD3 142207Z 09014KT 33/11 A2979 RMK A01 T03300114  RH  027%=      5-min Rain = 0
KPD3 142208Z 08011KT 33/12 A2979 RMK A01 T03290116  RH  027%=      5-min Rain = 0
KPD3 142209Z 09013KT 33/12 A2979 RMK A01 T03320118  RH  027%=      5-min Rain = 0
KPD3 142210Z 10013KT 34/11 A2979 RMK A01 T03350113  RH  026%=      5-min Rain = 0
KPD3 142211Z 11015KT 34/11 A2979 RMK A01 T03350111  RH  026%=      5-min Rain = 0
KPD3 142212Z 11014KT 33/11 A298 RMK A01 T03320110  RH  026%=      5-min Rain = 0
KPD3 142213Z 11013KT 33/11 A298 RMK A01 T03300112  RH  027%=      5-min Rain = 0
KPD3 142214Z 11014KT 33/11 A298 RMK A01 T03300110  RH  026%=      5-min Rain = 0
KPD3 142215Z 11012KT 33/11 A298 RMK A01 T03290109  RH  026%=      5-min Rain = 0
KPD3 142216Z 11013KT 33/11 A298 RMK A01 T03280107  RH  026%=      5-min Rain = 0
KPD3 142217Z 11014KT 33/11 A298 RMK A01 T03280105  RH  026%=      5-min Rain = 0
KPD3 142218Z 11013KT 33/11 A298 RMK A01 T03280108  RH  026%=      5-min Rain = 0
KPD3 142219Z 11013KT 33/11 A2981 RMK A01 T03290109  RH  026%=      5-min Rain = 0
KPD3 142220Z 11014KT 33/11 A2981 RMK A01 T03290111  RH  026%=      5-min Rain = 0
KPD3 142221Z 11013KT 33/11 A2981 RMK A01 T03270112  RH  027%=      5-min Rain = 0
KPD3 142222Z 11017KT 33/11 A2981 RMK A01 T03250114  RH  027%=      5-min Rain = 0
KPD3 142223Z 11016KT 32/12 A2981 RMK A01 T03220117  RH  028%=      5-min Rain = 0
KPD3 142224Z 11015KT 32/12 A2982 RMK A01 T03200118  RH  029%=      5-min Rain = 0
KPD3 142225Z 11016KT 32/12 A2982 RMK A01 T03180118  RH  029%=      5-min Rain = 0
KPD3 142226Z 12014KT 32/12 A2982 RMK A01 T03160117  RH  029%=      5-min Rain = 0
KPD3 142227Z 12016KT 32/12 A2982 RMK A01 T03150116  RH  029%=      5-min Rain = 0
KPD3 142228Z 12014KT 32/12 A2982 RMK A01 T03150116  RH  030%=      5-min Rain = 0
KPD3 142229Z 12016KT 31/12 A2983 RMK A01 T03130116  RH  030%=      5-min Rain = 0
KPD3 142230Z 12015KT 31/12 A2983 RMK A01 T03120116  RH  030%=      5-min Rain = 0
KPD3 142231Z 12016G21KT 31/12 A2983 RMK A01 T03100117  RH  031%=      5-min Rain = 0
KPD3 142232Z 12021KT 31/12 A2984 RMK A01 T03070119  RH  032%=      5-min Rain = 0
KPD3 142233Z 13022G29KT 30/12 A2985 RMK A01 T03010122  RH  033%=      5-min Rain = 0
KPD3 142234Z 14025G33KT 30/13 A2986 RMK A01 T02960125  RH  035%=      5-min Rain = 0
KPD3 142235Z 16022G27KT 29/13 A2986 RMK A01 T02890129  RH  037%=      5-min Rain = 0
KPD3 142236Z 16022G28KT 28/13 A2986 RMK A01 T02800133  RH  040%=      5-min Rain = 0
KPD3 142237Z 16027KT 27/14 A2986 RMK A01 T02700135  RH  043%=      5-min Rain = 0
KPD3 142238Z 16023G28KT 27/14 A2986 RMK A01 T02660135  RH  045%=      5-min Rain = 0
KPD3 142239Z 16023G28KT 27/13 A2986 RMK A01 T02660130  RH  043%=      5-min Rain = 0
KPD3 142240Z 15026G34KT 27/13 A2985 RMK A01 T02700131  RH  042%=      5-min Rain = 0
KPD3 142241Z 15020KT 28/13 A2986 RMK A01 T02760130  RH  041%=      5-min Rain = 0
KPD3 142242Z 15021KT 28/13 A2986 RMK A01 T02770134  RH  041%=      5-min Rain = 0
KPD3 142243Z 13023KT 27/14 A2986 RMK A01 T02700136  RH  043%=      5-min Rain = 0
KPD3 142244Z 13024KT 26/14 A2986 RMK A01 T02640137  RH  046%=      5-min Rain = 0
KPD3 142245Z 13022KT 26/14 A2986 RMK A01 T02570142  RH  049%=      5-min Rain = 0
KPD3 142246Z 14020KT 25/14 A2986 RMK A01 T02510143  RH  051%=      5-min Rain = 0
KPD3 142247Z 15020KT 25/14 A2986 RMK A01 T02470140  RH  051%=      5-min Rain = 0
KPD3 142248Z 15021G27KT 25/14 A2986 RMK A01 T02460138  RH  051%=      5-min Rain = 0
KPD3 142249Z 15023KT 25/13 A2987 RMK A01 T02450132  RH  049%=      5-min Rain = 0
KPD3 142250Z 17023KT 25/12 A2987 RMK A01 T02450123  RH  047%=      5-min Rain = 0
KPD3 142251Z 17023KT 24/13 A2987 RMK A01 T02440125  RH  047%=      5-min Rain = 0
KPD3 142252Z 17022KT 24/13 A2987 RMK A01 T02410126  RH  049%=      5-min Rain = 0
KPD3 142253Z 16021KT 24/13 A2986 RMK A01 T02400128  RH  049%=      5-min Rain = 0
KPD3 142254Z 17018KT 24/13 A2986 RMK A01 T02380129  RH  051%=      5-min Rain = 0
KPD3 142255Z 17017KT 24/13 A2987 RMK A01 T02350128  RH  051%=      5-min Rain = 0
KPD3 142256Z 17020KT 24/13 A2987 RMK A01 T02350128  RH  051%=      5-min Rain = 0
KPD3 142257Z 17018KT 24/13 A2987 RMK A01 T02350126  RH  050%=      5-min Rain = 0
KPD3 142258Z 18015KT 24/13 A2987 RMK A01 T02360126  RH  050%=      5-min Rain = 0
KPD3 142259Z 18017KT 24/13 A2987 RMK A01 T02370126  RH  050%=      5-min Rain = 0
KPD3 142300Z 18013KT 24/13 A2987 RMK A01 T02380125  RH  049%=      5-min Rain = 0
KPD3 142301Z 18012KT 24/13 A2987 RMK A01 T02400125  RH  048%=      5-min Rain = 0
KPD3 142302Z 17013KT 24/13 A2987 RMK A01 T02430125  RH  048%=      5-min Rain = 0
KPD3 142303Z 18013KT 25/13 A2987 RMK A01 T02450125  RH  047%=      5-min Rain = 0
KPD3 142304Z 18012KT 25/13 A2987 RMK A01 T02470125  RH  047%=      5-min Rain = 0
KPD3 142305Z 17010G15KT 25/13 A2987 RMK A01 T02480125  RH  046%=      5-min Rain = 0
KPD3 142306Z 19009KT 25/13 A2987 RMK A01 T02480127  RH  047%=      5-min Rain = 0
KPD3 142307Z 17009KT 25/13 A2987 RMK A01 T02490129  RH  047%=      5-min Rain = 0
KPD3 142308Z 16010KT 25/13 A2987 RMK A01 T02470134  RH  049%=      5-min Rain = 0
KPD3 142309Z 17009KT 24/14 A2987 RMK A01 T02410136  RH  052%=      5-min Rain = 0
KPD3 142310Z 17008KT 24/14 A2987 RMK A01 T02350136  RH  054%=      5-min Rain = 0
KPD3 142311Z 17007KT 23/14 A2987 RMK A01 T02330138  RH  055%=      5-min Rain = 0
KPD3 142312Z 19009G17KT 23/13 A2987 RMK A01 T02310134  RH  054%=      5-min Rain = 0
KPD3 142313Z 21017KT 24/12 A2987 RMK A01 T02350124  RH  050%=      5-min Rain = 0
KPD3 142314Z 19015KT 24/12 A2987 RMK A01 T02430124  RH  047%=      5-min Rain = 0
KPD3 142315Z 19015KT 25/12 A2987 RMK A01 T02460123  RH  046%=      5-min Rain = 0
KPD3 142316Z 20014G20KT 25/12 A2987 RMK A01 T02480123  RH  045%=      5-min Rain = 0
KPD3 142317Z 18018KT 25/12 A2987 RMK A01 T02500120  RH  044%=      5-min Rain = 0
KPD3 142318Z 19016KT 25/12 A2987 RMK A01 T02510120  RH  044%=      5-min Rain = 0
KPD3 142319Z 18015KT 25/12 A2987 RMK A01 T02520120  RH  044%=      5-min Rain = 0
KPD3 142320Z 18015KT 25/12 A2987 RMK A01 T02520120  RH  044%=      5-min Rain = 0
KPD3 142321Z 18014KT 25/12 A2987 RMK A01 T02520121  RH  044%=      5-min Rain = 0
KPD3 142322Z 18012KT 25/12 A2987 RMK A01 T02510121  RH  044%=      5-min Rain = 0
KPD3 142323Z 17014KT 25/12 A2987 RMK A01 T02500122  RH  045%=      5-min Rain = 0
KPD3 142324Z 18012KT 25/12 A2987 RMK A01 T02490122  RH  045%=      5-min Rain = 0
KPD3 142325Z 18010KT 25/12 A2987 RMK A01 T02490122  RH  045%=      5-min Rain = 0
KPD3 142326Z 18010KT 25/12 A2987 RMK A01 T02480122  RH  045%=      5-min Rain = 0
KPD3 142327Z 18011KT 25/12 A2987 RMK A01 T02470122  RH  046%=      5-min Rain = 0
KPD3 142328Z 18009KT 25/12 A2986 RMK A01 T02460123  RH  046%=      5-min Rain = 0
KPD3 142329Z 18009KT 25/12 A2986 RMK A01 T02460123  RH  046%=      5-min Rain = 0
KPD3 142330Z 19007KT 25/12 A2986 RMK A01 T02450123  RH  046%=      5-min Rain = 0
KPD3 142331Z 19007KT 25/12 A2986 RMK A01 T02450122  RH  046%=      5-min Rain = 0
KPD3 142332Z 21005KT 25/12 A2986 RMK A01 T02450123  RH  047%=      5-min Rain = 0
KPD3 142333Z 21003KT 24/12 A2986 RMK A01 T02440123  RH  047%=      5-min Rain = 0
KPD3 142334Z 20002KT 24/12 A2986 RMK A01 T02440122  RH  046%=      5-min Rain = 0
KPD3 142335Z 11001KT 24/12 A2986 RMK A01 T02440122  RH  046%=      5-min Rain = 0
KPD3 142336Z 08002KT 24/12 A2985 RMK A01 T02440121  RH  046%=      5-min Rain = 0
KPD3 142337Z 09002KT 25/12 A2985 RMK A01 T02450121  RH  046%=      5-min Rain = 0
KPD3 142338Z 06003KT 25/12 A2985 RMK A01 T02450122  RH  046%=      5-min Rain = 0
KPD3 142339Z 09003KT 25/12 A2985 RMK A01 T02450117  RH  045%=      5-min Rain = 0
KPD3 142340Z 09001KT 25/11 A2985 RMK A01 T02460114  RH  043%=      5-min Rain = 0
KPD3 142341Z 12002KT 25/11 A2985 RMK A01 T02490113  RH  042%=      5-min Rain = 0
KPD3 142342Z 14001KT 25/11 A2985 RMK A01 T02500113  RH  042%=      5-min Rain = 0
KPD3 142343Z 13004KT 25/11 A2985 RMK A01 T02510112  RH  042%=      5-min Rain = 0
KPD3 142344Z 13008KT 25/11 A2985 RMK A01 T02520114  RH  042%=      5-min Rain = 0
KPD3 142345Z 12005KT 25/11 A2985 RMK A01 T02520114  RH  042%=      5-min Rain = 0
KPD3 142346Z 12007KT 25/12 A2985 RMK A01 T02510117  RH  043%=      5-min Rain = 0
KPD3 142347Z 12011KT 25/12 A2985 RMK A01 T02480121  RH  045%=      5-min Rain = 0
KPD3 142348Z 11010KT 24/12 A2985 RMK A01 T02440121  RH  046%=      5-min Rain = 0
KPD3 142349Z 12009KT 24/12 A2985 RMK A01 T02430120  RH  046%=      5-min Rain = 0
KPD3 142350Z 11009KT 24/12 A2985 RMK A01 T02430119  RH  046%=      5-min Rain = 0
KPD3 142351Z 11010KT 24/12 A2985 RMK A01 T02430119  RH  046%=      5-min Rain = 0
KPD3 142352Z 11010KT 24/12 A2985 RMK A01 T02420121  RH  047%=      5-min Rain = 0
KPD3 142353Z 12008KT 24/12 A2985 RMK A01 T02410122  RH  047%=      5-min Rain = 0
KPD3 142354Z 12012KT 24/12 A2985 RMK A01 T02400120  RH  047%=      5-min Rain = 0
KPD3 142355Z 13013KT 24/12 A2984 RMK A01 T02410117  RH  046%=      5-min Rain = 0
KPD3 142356Z 13011KT 24/12 A2984 RMK A01 T02430116  RH  045%=      5-min Rain = 0
KPD3 142357Z 13013KT 24/12 A2984 RMK A01 T02430119  RH  046%=      5-min Rain = 0
KPD3 142358Z 12012KT 24/12 A2983 RMK A01 T02420120  RH  046%=      5-min Rain = 0
KPD3 142359Z 11013KT 24/12 A2983 RMK A01 T02410121  RH  047%=      5-min Rain = 0
KPD3 150000Z 10012KT 24/12 A2983 RMK A01 T02410121  RH  047%=      5-min Rain = 0
KPD3 150001Z 09012KT 24/12 A2983 RMK A01 T02400121  RH  047%=      5-min Rain = 0
KPD3 150002Z 07013KT 24/12 A2983 RMK A01 T02390122  RH  048%=      5-min Rain = 0
KPD3 150003Z 05012KT 24/13 A2983 RMK A01 T02370126  RH  050%=      5-min Rain = 0
KPD3 150004Z 04014KT 24/13 A2983 RMK A01 T02350134  RH  053%=      5-min Rain = 0
KPD3 150005Z 04016KT 23/14 A2983 RMK A01 T02300143  RH  058%=      5-min Rain = 0
KPD3 150006Z 05018G24KT 23/14 A2982 RMK A01 T02250144  RH  060%=      5-min Rain = 0
KPD3 150007Z 06023G28KT 22/14 A2981 RMK A01 T02230144  RH  061%=      5-min Rain = 0
KPD3 150008Z 07027G32KT 22/14 A298 RMK A01 T02210143  RH  061%=      5-min Rain = 0
KPD3 150009Z 07030G36KT 22/14 A2979 RMK A01 T02210142  RH  061%=      5-min Rain = 0
KPD3 150010Z 07030KT 22/14 A2979 RMK A01 T02210140  RH  060%=      5-min Rain = 0
KPD3 150011Z 07028KT 22/14 A298 RMK A01 T02220137  RH  059%=      5-min Rain = 0
KPD3 150012Z 07025G30KT 22/14 A298 RMK A01 T02240136  RH  057%=      5-min Rain = 0
KPD3 150013Z 05019KT 23/14 A298 RMK A01 T02250137  RH  057%=      5-min Rain = 0
KPD3 150014Z 07018KT 23/14 A2981 RMK A01 T02250139  RH  058%=      5-min Rain = 0
KPD3 150015Z 09019KT 23/14 A2981 RMK A01 T02250139  RH  058%=      5-min Rain = 0
KPD3 150016Z 09023G28KT 23/14 A2981 RMK A01 T02250135  RH  057%=      5-min Rain = 0
KPD3 150017Z 09020G25KT 23/13 A2981 RMK A01 T02270134  RH  056%=      5-min Rain = 0
KPD3 150018Z 09020KT 23/13 A2982 RMK A01 T02270134  RH  056%=      5-min Rain = 0
KPD3 150019Z 09020KT 23/13 A2982 RMK A01 T02280131  RH  054%=      5-min Rain = 0
KPD3 150020Z 09020KT 23/13 A2982 RMK A01 T02300131  RH  053%=      5-min Rain = 0
KPD3 150021Z 09019KT 23/13 A2982 RMK A01 T02310130  RH  053%=      5-min Rain = 0
KPD3 150022Z 09019KT 23/13 A2982 RMK A01 T02320130  RH  053%=      5-min Rain = 0
KPD3 150023Z 09020G26KT 23/13 A2982 RMK A01 T02330131  RH  053%=      5-min Rain = 0
KPD3 150024Z 09021KT 23/13 A2983 RMK A01 T02330130  RH  052%=      5-min Rain = 0
KPD3 150025Z 09015KT 23/13 A2983 RMK A01 T02340130  RH  052%=      5-min Rain = 0
KPD3 150026Z 10013KT 23/13 A2984 RMK A01 T02340131  RH  052%=      5-min Rain = 0
KPD3 150027Z 10013KT 23/13 A2985 RMK A01 T02340131  RH  052%=      5-min Rain = 0
KPD3 150028Z 10016KT 23/13 A2985 RMK A01 T02340130  RH  052%=      5-min Rain = 0
KPD3 150029Z 11012KT 23/13 A2986 RMK A01 T02340130  RH  052%=      5-min Rain = 0
KPD3 150030Z 12014KT 23/13 A2986 RMK A01 T02340132  RH  053%=      5-min Rain = 0
KPD3 150031Z 13014KT 23/13 A2987 RMK A01 T02330133  RH  053%=      5-min Rain = 0
KPD3 150032Z 13016KT 23/13 A2987 RMK A01 T02320132  RH  053%=      5-min Rain = 0
KPD3 150033Z 13018KT 23/13 A2988 RMK A01 T02320132  RH  053%=      5-min Rain = 0
KPD3 150034Z 14021KT 23/13 A2988 RMK A01 T02320134  RH  054%=      5-min Rain = 0
KPD3 150035Z 13021G26KT 23/14 A2989 RMK A01 T02300137  RH  056%=      5-min Rain = 0
KPD3 150036Z 14019KT 23/14 A2989 RMK A01 T02280139  RH  057%=      5-min Rain = 0
KPD3 150037Z 14021KT 23/14 A2989 RMK A01 T02260139  RH  058%=      5-min Rain = 0
KPD3 150038Z 14024KT 23/14 A2989 RMK A01 T02250141  RH  059%=      5-min Rain = 0
KPD3 150039Z 13020G25KT 22/14 A2988 RMK A01 T02230143  RH  060%=      5-min Rain = 0
KPD3 150040Z 12025G30KT 22/15 A2988 RMK A01 T02210145  RH  062%=      5-min Rain = 0
KPD3 150041Z 12023G28KT 22/15 A2989 RMK A01 T02190148  RH  064%=      5-min Rain = 0
KPD3 150042Z 13023KT 22/15 A299 RMK A01 T02180149  RH  065%=      5-min Rain = 0
KPD3 150043Z 13026G31KT 22/15 A299 RMK A01 T02170151  RH  066%=      5-min Rain = 0
KPD3 150044Z 13025KT 22/15 A299 RMK A01 T02160153  RH  067%=      5-min Rain = 0
KPD3 150045Z 13023KT 21/15 A299 RMK A01 T02140153  RH  068%=      5-min Rain = 0
KPD3 150046Z 12020G25KT 21/15 A299 RMK A01 T02140154  RH  069%=      5-min Rain = 0
KPD3 150047Z 12021KT 21/15 A299 RMK A01 T02130154  RH  069%=      5-min Rain = 0
KPD3 150048Z 12021KT 21/15 A299 RMK A01 T02130154  RH  069%=      5-min Rain = 0
KPD3 150049Z 12020G25KT 21/15 A299 RMK A01 T02120154  RH  069%=      5-min Rain = 0
KPD3 150050Z 13017KT 21/15 A299 RMK A01 T02130154  RH  069%=      5-min Rain = 0
KPD3 150051Z 12015G21KT 21/16 A299 RMK A01 T02130155  RH  069%=      5-min Rain = 0
KPD3 150052Z 12020KT 21/16 A299 RMK A01 T02130156  RH  070%=      5-min Rain = 0
KPD3 150053Z 13018KT 21/16 A299 RMK A01 T02120157  RH  070%=      5-min Rain = 0
KPD3 150054Z 12018KT 21/16 A299 RMK A01 T02120157  RH  071%=      5-min Rain = 0
KPD3 150055Z 12018KT 21/16 A299 RMK A01 T02110157  RH  071%=      5-min Rain = 0
KPD3 150056Z 12021KT 21/16 A299 RMK A01 T02110157  RH  071%=      5-min Rain = 0
KPD3 150057Z 12019KT 21/16 A299 RMK A01 T02100157  RH  072%=      5-min Rain = 0
KPD3 150058Z 13016KT 21/16 A299 RMK A01 T02100158  RH  072%=      5-min Rain = 0
KPD3 150059Z 13017G22KT 21/16 A299 RMK A01 T02100158  RH  072%=      5-min Rain = 0
KPD3 150100Z 13016G21KT 21/16 A299 RMK A01 T02090157  RH  072%=      5-min Rain = 0
KPD3 150101Z 13016KT 21/16 A299 RMK A01 T02090157  RH  072%=      5-min Rain = 0
KPD3 150102Z 13018KT 21/16 A299 RMK A01 T02090157  RH  072%=      5-min Rain = 0
KPD3 150103Z 13015KT 21/16 A299 RMK A01 T02080157  RH  073%=      5-min Rain = 0
KPD3 150104Z 14017KT 21/16 A299 RMK A01 T02080158  RH  073%=      5-min Rain = 0
KPD3 150105Z 13014KT 21/16 A299 RMK A01 T02080158  RH  073%=      5-min Rain = 0
KPD3 150106Z 13016KT 21/16 A299 RMK A01 T02080158  RH  073%=      5-min Rain = 0
KPD3 150107Z 13014KT 21/16 A299 RMK A01 T02070158  RH  073%=      5-min Rain = 0
KPD3 150108Z 13016KT 21/16 A299 RMK A01 T02070158  RH  074%=      5-min Rain = 0
KPD3 150109Z 14017KT 21/16 A299 RMK A01 T02060159  RH  074%=      5-min Rain = 0
KPD3 150110Z 13015KT 21/16 A299 RMK A01 T02050159  RH  075%=      5-min Rain = 0
KPD3 150111Z 13013KT 20/16 A299 RMK A01 T02040160  RH  076%=      5-min Rain = 0
KPD3 150112Z 14013KT 20/16 A299 RMK A01 T02030160  RH  076%=      5-min Rain = 0
KPD3 150113Z 13013KT 20/16 A299 RMK A01 T02030160  RH  076%=      5-min Rain = 0
KPD3 150114Z 13013KT 20/16 A299 RMK A01 T02020160  RH  077%=      5-min Rain = 0
KPD3 150115Z 13013KT 20/16 A299 RMK A01 T02020160  RH  077%=      5-min Rain = 0
KPD3 150116Z 13012KT 20/16 A299 RMK A01 T02010161  RH  077%=      5-min Rain = 0
KPD3 150117Z 14012KT 20/16 A299 RMK A01 T02010161  RH  078%=      5-min Rain = 0
KPD3 150118Z 13011KT 20/16 A299 RMK A01 T02000161  RH  078%=      5-min Rain = 0
KPD3 150119Z 13010KT 20/16 A299 RMK A01 T02000162  RH  079%=      5-min Rain = 0
KPD3 150120Z 13013KT 20/16 A299 RMK A01 T02000162  RH  079%=      5-min Rain = 0
KPD3 150121Z 13012KT 20/16 A299 RMK A01 T01990162  RH  079%=      5-min Rain = 0
KPD3 150122Z 13010KT 20/16 A299 RMK A01 T01990162  RH  079%=      5-min Rain = 0
KPD3 150123Z 12010KT 20/16 A299 RMK A01 T01990162  RH  079%=      5-min Rain = 0
KPD3 150124Z 13011KT 20/16 A299 RMK A01 T01990161  RH  079%=      5-min Rain = 0
KPD3 150125Z 12009KT 20/16 A299 RMK A01 T01990161  RH  079%=      5-min Rain = 0
KPD3 150126Z 12010KT 20/16 A299 RMK A01 T01990161  RH  079%=      5-min Rain = 0
KPD3 150127Z 12009KT 20/16 A299 RMK A01 T01990161  RH  079%=      5-min Rain = 0
KPD3 150128Z 12009KT 20/16 A299 RMK A01 T01990161  RH  079%=      5-min Rain = 0
KPD3 150129Z 13009KT 20/16 A299 RMK A01 T01980161  RH  079%=      5-min Rain = 0
KPD3 150130Z 14010KT 20/16 A299 RMK A01 T01980161  RH  079%=      5-min Rain = 0
KPD3 150131Z 14010KT 20/16 A299 RMK A01 T01980161  RH  079%=      5-min Rain = 0
KPD3 150132Z 15010KT 20/16 A299 RMK A01 T01970160  RH  079%=      5-min Rain = 0
KPD3 150133Z 15012KT 20/16 A299 RMK A01 T01970160  RH  079%=      5-min Rain = 0
KPD3 150134Z 15010KT 20/16 A2991 RMK A01 T01970160  RH  079%=      5-min Rain = 0
KPD3 150135Z 16009KT 20/16 A2991 RMK A01 T01980160  RH  079%=      5-min Rain = 0
KPD3 150136Z 16010KT 20/16 A2991 RMK A01 T01970160  RH  079%=      5-min Rain = 0
KPD3 150137Z 17009KT 20/16 A2991 RMK A01 T01970159  RH  079%=      5-min Rain = 0
KPD3 150138Z 17009KT 20/16 A2991 RMK A01 T01970160  RH  079%=      5-min Rain = 0
KPD3 150139Z 17008KT 20/16 A2991 RMK A01 T01960159  RH  079%=      5-min Rain = 0
KPD3 150140Z 17009KT 20/16 A2991 RMK A01 T01960160  RH  080%=      5-min Rain = 0
KPD3 150141Z 16007KT 20/16 A299 RMK A01 T01960160  RH  080%=      5-min Rain = 0
KPD3 150142Z 16007KT 20/16 A299 RMK A01 T01950160  RH  080%=      5-min Rain = 0
KPD3 150143Z 16006KT 20/16 A299 RMK A01 T01950159  RH  080%=      5-min Rain = 0
KPD3 150144Z 16007KT 19/16 A299 RMK A01 T01940159  RH  080%=      5-min Rain = 0
KPD3 150145Z 15008KT 20/16 A299 RMK A01 T01950159  RH  080%=      5-min Rain = 0
KPD3 150151Z 14011KT 19/16 A299 RMK A01 T01940155  RH  078%=      5-min Rain = 0
KPD3 150152Z 14008KT 19/16 A2991 RMK A01 T01940155  RH  078%=      5-min Rain = 0
KPD3 150153Z 14007KT 19/15 A2991 RMK A01 T01940154  RH  078%=      5-min Rain = 0
KPD3 150154Z 15010KT 19/15 A2991 RMK A01 T01940154  RH  078%=      5-min Rain = 0
KPD3 150155Z 15009KT 19/16 A2991 RMK A01 T01930155  RH  078%=      5-min Rain = 0
KPD3 150156Z 16008KT 19/16 A2991 RMK A01 T01930155  RH  079%=      5-min Rain = 0
KPD3 150157Z 16008KT 19/16 A2991 RMK A01 T01930155  RH  079%=      5-min Rain = 0
KPD3 150158Z 16007KT 19/16 A2991 RMK A01 T01920155  RH  079%=      5-min Rain = 0
KPD3 150159Z 15008KT 19/16 A2991 RMK A01 T01920155  RH  079%=      5-min Rain = 0
KPD3 150200Z 15007KT 19/16 A2991 RMK A01 T01910155  RH  079%=      5-min Rain = 0
KPD3 150201Z 14009KT 19/16 A2991 RMK A01 T01910155  RH  079%=      5-min Rain = 0
KPD3 150202Z 14008KT 19/16 A299 RMK A01 T01910155  RH  080%=      5-min Rain = 0
KPD3 150203Z 13008KT 19/16 A299 RMK A01 T01910155  RH  080%=      5-min Rain = 0
KPD3 150204Z 14008KT 19/16 A299 RMK A01 T01900155  RH  080%=      5-min Rain = 0
KPD3 150205Z 14008KT 19/16 A299 RMK A01 T01900155  RH  080%=      5-min Rain = 0
KPD3 150206Z 14008KT 19/16 A299 RMK A01 T01900155  RH  080%=      5-min Rain = 0
KPD3 150207Z 14008KT 19/16 A299 RMK A01 T01890155  RH  080%=      5-min Rain = 0
KPD3 150208Z 13008KT 19/16 A299 RMK A01 T01890155  RH  080%=      5-min Rain = 0
KPD3 150209Z 13007KT 19/15 A2991 RMK A01 T01880154  RH  081%=      5-min Rain = 0
KPD3 150210Z 13007KT 19/16 A2991 RMK A01 T01880155  RH  081%=      5-min Rain = 0
KPD3 150211Z 13007KT 19/15 A2991 RMK A01 T01880154  RH  081%=      5-min Rain = 0
KPD3 150212Z 14006KT 19/15 A2991 RMK A01 T01870154  RH  081%=      5-min Rain = 0
KPD3 150213Z 15006KT 19/15 A2991 RMK A01 T01880154  RH  081%=      5-min Rain = 0
KPD3 150214Z 15007KT 19/15 A2991 RMK A01 T01880154  RH  081%=      5-min Rain = 0
KPD3 150215Z 15006KT 19/16 A2992 RMK A01 T01880155  RH  081%=      5-min Rain = 0
KPD3 150216Z 15005KT 19/15 A2992 RMK A01 T01880154  RH  081%=      5-min Rain = 0
KPD3 150217Z 14005KT 19/15 A2991 RMK A01 T01880154  RH  081%=      5-min Rain = 0
KPD3 150218Z 14005KT 19/15 A2991 RMK A01 T01880154  RH  081%=      5-min Rain = 0
KPD3 150219Z 14008KT 19/15 A2991 RMK A01 T01880154  RH  081%=      5-min Rain = 0
KPD3 150220Z 14007KT 19/15 A2991 RMK A01 T01880154  RH  081%=      5-min Rain = 0
KPD3 150221Z 14010KT 19/15 A2991 RMK A01 T01880154  RH  081%=      5-min Rain = 0
KPD3 150222Z 14008KT 19/15 A2991 RMK A01 T01880153  RH  080%=      5-min Rain = 0
KPD3 150223Z 14008KT 19/15 A2991 RMK A01 T01890154  RH  080%=      5-min Rain = 0
KPD3 150224Z 14009KT 19/15 A2991 RMK A01 T01880153  RH  080%=      5-min Rain = 0
KPD3 150225Z 13008KT 19/15 A2991 RMK A01 T01880153  RH  080%=      5-min Rain = 0
KPD3 150226Z 13010KT 19/15 A2991 RMK A01 T01880152  RH  079%=      5-min Rain = 0
KPD3 150227Z 13010KT 19/15 A2991 RMK A01 T01890151  RH  078%=      5-min Rain = 0
KPD3 150228Z 13009KT 19/15 A2991 RMK A01 T01900151  RH  078%=      5-min Rain = 0
KPD3 150229Z 13008KT 19/15 A2991 RMK A01 T01900150  RH  078%=      5-min Rain = 0
KPD3 150230Z 13008KT 19/15 A2991 RMK A01 T01890150  RH  078%=      5-min Rain = 0
KPD3 150231Z 13008KT 19/15 A2991 RMK A01 T01890149  RH  078%=      5-min Rain = 0
KPD3 150232Z 13009KT 19/15 A2991 RMK A01 T01880149  RH  078%=      5-min Rain = 0
KPD3 150233Z 13007KT 19/15 A2991 RMK A01 T01880148  RH  077%=      5-min Rain = 0
KPD3 150234Z 13007KT 19/15 A2991 RMK A01 T01890148  RH  077%=      5-min Rain = 0
KPD3 150235Z 12006KT 19/15 A2991 RMK A01 T01880147  RH  077%=      5-min Rain = 0
KPD3 150236Z 12006KT 19/15 A2991 RMK A01 T01880147  RH  077%=      5-min Rain = 0
KPD3 150237Z 12006KT 19/15 A2991 RMK A01 T01890147  RH  077%=      5-min Rain = 0
KPD3 150238Z 13006KT 19/15 A2991 RMK A01 T01890146  RH  076%=      5-min Rain = 0
KPD3 150239Z 12006KT 19/15 A2991 RMK A01 T01890146  RH  076%=      5-min Rain = 0
KPD3 150240Z 12005KT 19/15 A2991 RMK A01 T01880146  RH  076%=      5-min Rain = 0
KPD3 150241Z 11004KT 19/15 A2991 RMK A01 T01880146  RH  076%=      5-min Rain = 0
KPD3 150242Z 11004KT 19/15 A2991 RMK A01 T01870145  RH  076%=      5-min Rain = 0
KPD3 150243Z 11004KT 19/15 A2991 RMK A01 T01870145  RH  077%=      5-min Rain = 0
KPD3 150244Z 10003KT 19/15 A2992 RMK A01 T01870145  RH  077%=      5-min Rain = 0
KPD3 150245Z 09003KT 19/15 A2992 RMK A01 T01860145  RH  077%=      5-min Rain = 0
KPD3 150246Z 10003KT 19/15 A2992 RMK A01 T01860145  RH  077%=      5-min Rain = 0
KPD3 150247Z 10002KT 19/15 A2992 RMK A01 T01860145  RH  077%=      5-min Rain = 0
KPD3 150248Z 12002KT 19/15 A2992 RMK A01 T01860145  RH  077%=      5-min Rain = 0
KPD3 150249Z 11001KT 19/14 A2992 RMK A01 T01860144  RH  077%=      5-min Rain = 0
KPD3 150250Z 12000KT 19/14 A2992 RMK A01 T01860144  RH  076%=      5-min Rain = 0
KPD3 150251Z 00000KT 19/14 A2992 RMK A01 T01860144  RH  077%=      5-min Rain = 0
KPD3 150252Z 18000KT 19/14 A2992 RMK A01 T01860144  RH  077%=      5-min Rain = 0
KPD3 150253Z 21001KT 19/14 A2992 RMK A01 T01860144  RH  077%=      5-min Rain = 0
KPD3 150254Z 21001KT 19/14 A2992 RMK A01 T01850143  RH  076%=      5-min Rain = 0
KPD3 150255Z 23002KT 18/14 A2992 RMK A01 T01840141  RH  076%=      5-min Rain = 0
KPD3 150256Z 22002KT 18/14 A2992 RMK A01 T01820140  RH  076%=      5-min Rain = 0
KPD3 150257Z 22002KT 18/14 A2992 RMK A01 T01800140  RH  077%=      5-min Rain = 0
KPD3 150258Z 21002KT 18/14 A2992 RMK A01 T01790141  RH  078%=      5-min Rain = 0
KPD3 150259Z 19002KT 18/14 A2992 RMK A01 T01790141  RH  078%=      5-min Rain = 0
KPD3 150300Z 18002KT 18/14 A2992 RMK A01 T01790139  RH  078%=      5-min Rain = 0
KPD3 150301Z 18003KT 18/14 A2992 RMK A01 T01780139  RH  078%=      5-min Rain = 0
KPD3 150302Z 17003KT 18/14 A2992 RMK A01 T01770139  RH  078%=      5-min Rain = 0
KPD3 150303Z 16003KT 18/14 A2992 RMK A01 T01770139  RH  079%=      5-min Rain = 0
KPD3 150304Z 17003KT 18/14 A2992 RMK A01 T01770141  RH  079%=      5-min Rain = 0
KPD3 150305Z 17004KT 18/14 A2992 RMK A01 T01770139  RH  079%=      5-min Rain = 0
KPD3 150306Z 16004KT 18/14 A2992 RMK A01 T01770140  RH  079%=      5-min Rain = 0
KPD3 150307Z 16004KT 18/14 A2992 RMK A01 T01770140  RH  079%=      5-min Rain = 0
KPD3 150308Z 16004KT 18/14 A2992 RMK A01 T01750138  RH  079%=      5-min Rain = 0
KPD3 150309Z 16005KT 17/14 A2992 RMK A01 T01740138  RH  080%=      5-min Rain = 0
KPD3 150310Z 15005KT 17/14 A2992 RMK A01 T01740138  RH  079%=      5-min Rain = 0
KPD3 150311Z 15005KT 17/14 A2992 RMK A01 T01740138  RH  079%=      5-min Rain = 0
KPD3 150312Z 15004KT 17/14 A2992 RMK A01 T01740137  RH  079%=      5-min Rain = 0
KPD3 150313Z 15005KT 17/14 A2992 RMK A01 T01730137  RH  079%=      5-min Rain = 0
KPD3 150314Z 15005KT 17/14 A2992 RMK A01 T01740138  RH  079%=      5-min Rain = 0
KPD3 150315Z 15005KT 17/14 A2992 RMK A01 T01740138  RH  079%=      5-min Rain = 0
KPD3 150316Z 16004KT 17/14 A2992 RMK A01 T01730137  RH  079%=      5-min Rain = 0
KPD3 150317Z 16005KT 17/14 A2992 RMK A01 T01730137  RH  080%=      5-min Rain = 0
KPD3 150318Z 17005KT 17/14 A2992 RMK A01 T01730138  RH  080%=      5-min Rain = 0
KPD3 150319Z 17005KT 17/14 A2992 RMK A01 T01740138  RH  080%=      5-min Rain = 0
KPD3 150320Z 17005KT 17/14 A2992 RMK A01 T01730138  RH  080%=      5-min Rain = 0
KPD3 150321Z 18005KT 17/14 A2992 RMK A01 T01720138  RH  080%=      5-min Rain = 0
KPD3 150322Z 18005KT 17/14 A2992 RMK A01 T01710138  RH  081%=      5-min Rain = 0
KPD3 150323Z 19004KT 17/14 A2992 RMK A01 T01700137  RH  081%=      5-min Rain = 0
KPD3 150324Z 18004KT 17/14 A2992 RMK A01 T01700137  RH  081%=      5-min Rain = 0
KPD3 150325Z 18003KT 17/14 A2992 RMK A01 T01690137  RH  081%=      5-min Rain = 0
KPD3 150326Z 18003KT 17/14 A2992 RMK A01 T01690138  RH  082%=      5-min Rain = 0
KPD3 150327Z 18004KT 17/14 A2992 RMK A01 T01690138  RH  082%=      5-min Rain = 0
KPD3 150328Z 18003KT 17/14 A2993 RMK A01 T01700139  RH  082%=      5-min Rain = 0
KPD3 150329Z 19003KT 17/14 A2993 RMK A01 T01700139  RH  082%=      5-min Rain = 0
KPD3 150330Z 19004KT 17/14 A2993 RMK A01 T01700139  RH  082%=      5-min Rain = 0
KPD3 150331Z 18004KT 17/14 A2993 RMK A01 T01700140  RH  083%=      5-min Rain = 0
KPD3 150332Z 17004KT 17/14 A2992 RMK A01 T01700140  RH  082%=      5-min Rain = 0
KPD3 150333Z 18004KT 17/14 A2992 RMK A01 T01710140  RH  082%=      5-min Rain = 0
KPD3 150334Z 19003KT 17/14 A2992 RMK A01 T01710140  RH  082%=      5-min Rain = 0
KPD3 150335Z 17004KT 17/14 A2992 RMK A01 T01710139  RH  081%=      5-min Rain = 0
KPD3 150336Z 17003KT 17/14 A2992 RMK A01 T01710139  RH  082%=      5-min Rain = 0
KPD3 150337Z 17004KT 17/14 A2992 RMK A01 T01720140  RH  082%=      5-min Rain = 0
KPD3 150338Z 18004KT 17/14 A2992 RMK A01 T01730140  RH  081%=      5-min Rain = 0
KPD3 150339Z 17004KT 17/14 A2993 RMK A01 T01740140  RH  080%=      5-min Rain = 0
KPD3 150340Z 18003KT 17/14 A2993 RMK A01 T01740139  RH  080%=      5-min Rain = 0
KPD3 150341Z 19004KT 17/14 A2993 RMK A01 T01740140  RH  080%=      5-min Rain = 0
KPD3 150342Z 19004KT 17/14 A2992 RMK A01 T01740139  RH  080%=      5-min Rain = 0
KPD3 150343Z 17003KT 17/14 A2992 RMK A01 T01740138  RH  079%=      5-min Rain = 0
KPD3 150344Z 17002KT 18/14 A2992 RMK A01 T01760138  RH  078%=      5-min Rain = 0
KPD3 150345Z 17003KT 18/14 A2992 RMK A01 T01760138  RH  078%=      5-min Rain = 0
KPD3 150346Z 17004KT 18/14 A2992 RMK A01 T01760138  RH  079%=      5-min Rain = 0
KPD3 150347Z 17003KT 18/14 A2992 RMK A01 T01760138  RH  079%=      5-min Rain = 0
KPD3 150348Z 17003KT 18/14 A2992 RMK A01 T01750138  RH  078%=      5-min Rain = 0
KPD3 150349Z 16003KT 18/14 A2992 RMK A01 T01760138  RH  078%=      5-min Rain = 0
KPD3 150350Z 15003KT 18/14 A2992 RMK A01 T01750137  RH  078%=      5-min Rain = 0
KPD3 150351Z 16003KT 18/14 A2992 RMK A01 T01750136  RH  078%=      5-min Rain = 0
KPD3 150352Z 14002KT 18/14 A2992 RMK A01 T01750136  RH  078%=      5-min Rain = 0
KPD3 150353Z 13001KT 18/14 A2992 RMK A01 T01750136  RH  078%=      5-min Rain = 0
KPD3 150354Z 02001KT 18/14 A2992 RMK A01 T01750137  RH  078%=      5-min Rain = 0
KPD3 150355Z 36001KT 17/14 A2992 RMK A01 T01740136  RH  078%=      5-min Rain = 0
KPD3 150356Z 31002KT 17/14 A2993 RMK A01 T01730135  RH  078%=      5-min Rain = 0
KPD3 150357Z 30003KT 17/13 A2993 RMK A01 T01700131  RH  078%=      5-min Rain = 0
KPD3 150358Z 29003KT 17/13 A2993 RMK A01 T01660130  RH  079%=      5-min Rain = 0
KPD3 150359Z 30004KT 16/13 A2993 RMK A01 T01640130  RH  080%=      5-min Rain = 0
KPD3 150400Z 30004KT 16/13 A2993 RMK A01 T01620129  RH  081%=      5-min Rain = 0
KPD3 150401Z 30003KT 16/13 A2993 RMK A01 T01600130  RH  082%=      5-min Rain = 0
KPD3 150402Z 31003KT 16/13 A2993 RMK A01 T01600130  RH  082%=      5-min Rain = 0
KPD3 150403Z 31004KT 16/13 A2993 RMK A01 T01600130  RH  082%=      5-min Rain = 0
KPD3 150404Z 30004KT 16/13 A2993 RMK A01 T01600130  RH  082%=      5-min Rain = 0
KPD3 150405Z 30004KT 16/13 A2993 RMK A01 T01590129  RH  083%=      5-min Rain = 0
KPD3 150406Z 29004KT 16/13 A2994 RMK A01 T01580129  RH  083%=      5-min Rain = 0
KPD3 150407Z 29004KT 16/13 A2994 RMK A01 T01570129  RH  083%=      5-min Rain = 0
KPD3 150408Z 29004KT 16/13 A2994 RMK A01 T01570129  RH  084%=      5-min Rain = 0
KPD3 150409Z 29003KT 16/13 A2994 RMK A01 T01560129  RH  084%=      5-min Rain = 0
KPD3 150410Z 30003KT 16/13 A2993 RMK A01 T01570129  RH  084%=      5-min Rain = 0
KPD3 150411Z 30002KT 16/13 A2993 RMK A01 T01560128  RH  083%=      5-min Rain = 0
KPD3 150412Z 30002KT 16/13 A2993 RMK A01 T01560128  RH  083%=      5-min Rain = 0
KPD3 150413Z 29002KT 16/13 A2993 RMK A01 T01560128  RH  083%=      5-min Rain = 0
KPD3 150414Z 28002KT 16/13 A2993 RMK A01 T01560128  RH  083%=      5-min Rain = 0
KPD3 150415Z 28001KT 16/13 A2993 RMK A01 T01560128  RH  083%=      5-min Rain = 0
KPD3 150416Z 30001KT 16/13 A2993 RMK A01 T01560128  RH  084%=      5-min Rain = 0
KPD3 150417Z 32000KT 16/13 A2993 RMK A01 T01560128  RH  083%=      5-min Rain = 0
KPD3 150418Z 32000KT 16/13 A2993 RMK A01 T01560128  RH  083%=      5-min Rain = 0
KPD3 150419Z 31000KT 16/13 A2993 RMK A01 T01560128  RH  084%=      5-min Rain = 0
KPD3 150420Z 30001KT 16/13 A2993 RMK A01 T01560128  RH  084%=      5-min Rain = 0
KPD3 150421Z 32001KT 16/13 A2993 RMK A01 T01550128  RH  084%=      5-min Rain = 0
KPD3 150422Z 32001KT 16/13 A2992 RMK A01 T01550128  RH  084%=      5-min Rain = 0
KPD3 150423Z 33001KT 15/13 A2993 RMK A01 T01540126  RH  084%=      5-min Rain = 0
KPD3 150424Z 33001KT 15/13 A2992 RMK A01 T01530126  RH  084%=      5-min Rain = 0
KPD3 150425Z 33001KT 15/12 A2992 RMK A01 T01520124  RH  084%=      5-min Rain = 0
KPD3 150426Z 33002KT 15/12 A2992 RMK A01 T01500123  RH  084%=      5-min Rain = 0
KPD3 150427Z 33003KT 15/12 A2992 RMK A01 T01480122  RH  084%=      5-min Rain = 0
KPD3 150428Z 32003KT 15/12 A2992 RMK A01 T01460121  RH  085%=      5-min Rain = 0
KPD3 150429Z 31003KT 15/12 A2992 RMK A01 T01450121  RH  085%=      5-min Rain = 0
KPD3 150430Z 32004KT 14/12 A2992 RMK A01 T01440121  RH  086%=      5-min Rain = 0
KPD3 150431Z 33003KT 14/12 A2992 RMK A01 T01430121  RH  087%=      5-min Rain = 0
KPD3 150432Z 34004KT 14/12 A2992 RMK A01 T01430122  RH  087%=      5-min Rain = 0
KPD3 150433Z 35004KT 14/12 A2992 RMK A01 T01430122  RH  087%=      5-min Rain = 0
KPD3 150434Z 34004KT 14/12 A2992 RMK A01 T01440123  RH  087%=      5-min Rain = 0
KPD3 150435Z 33004KT 15/12 A2993 RMK A01 T01450123  RH  086%=      5-min Rain = 0
KPD3 150436Z 32004KT 15/12 A2993 RMK A01 T01450123  RH  086%=      5-min Rain = 0
KPD3 150437Z 31003KT 15/12 A2993 RMK A01 T01460123  RH  086%=      5-min Rain = 0
KPD3 150438Z 30003KT 15/12 A2993 RMK A01 T01460123  RH  086%=      5-min Rain = 0
KPD3 150439Z 29002KT 15/12 A2993 RMK A01 T01460123  RH  086%=      5-min Rain = 0
KPD3 150440Z 29002KT 15/12 A2993 RMK A01 T01460123  RH  086%=      5-min Rain = 0
KPD3 150441Z 27001KT 15/12 A2993 RMK A01 T01460122  RH  085%=      5-min Rain = 0
KPD3 150442Z 26001KT 14/12 A2993 RMK A01 T01440119  RH  085%=      5-min Rain = 0
KPD3 150443Z 26000KT 14/12 A2993 RMK A01 T01420118  RH  086%=      5-min Rain = 0
KPD3 150444Z 11000KT 14/12 A2993 RMK A01 T01410119  RH  086%=      5-min Rain = 0
KPD3 150445Z 09001KT 14/12 A2992 RMK A01 T01410119  RH  087%=      5-min Rain = 0
KPD3 150446Z 09002KT 14/12 A2992 RMK A01 T01410120  RH  087%=      5-min Rain = 0
KPD3 150447Z 08002KT 14/12 A2992 RMK A01 T01410120  RH  087%=      5-min Rain = 0
KPD3 150448Z 07002KT 14/12 A2992 RMK A01 T01410118  RH  086%=      5-min Rain = 0
KPD3 150449Z 06001KT 14/12 A2993 RMK A01 T01410119  RH  087%=      5-min Rain = 0
KPD3 150450Z 01000KT 14/12 A2993 RMK A01 T01400118  RH  086%=      5-min Rain = 0
KPD3 150451Z 27001KT 14/12 A2993 RMK A01 T01400117  RH  086%=      5-min Rain = 0
KPD3 150452Z 26003KT 14/12 A2994 RMK A01 T01380115  RH  086%=      5-min Rain = 0
KPD3 150453Z 27003KT 14/11 A2993 RMK A01 T01360114  RH  087%=      5-min Rain = 0
KPD3 150454Z 28003KT 13/11 A2993 RMK A01 T01340113  RH  087%=      5-min Rain = 0
KPD3 150455Z 29003KT 13/11 A2993 RMK A01 T01330114  RH  088%=      5-min Rain = 0
KPD3 150456Z 30002KT 13/12 A2993 RMK A01 T01330115  RH  089%=      5-min Rain = 0
KPD3 150457Z 31003KT 13/12 A2993 RMK A01 T01340116  RH  089%=      5-min Rain = 0
KPD3 150458Z 32003KT 14/12 A2993 RMK A01 T01350117  RH  089%=      5-min Rain = 0
KPD3 150459Z 34003KT 14/12 A2993 RMK A01 T01360117  RH  089%=      5-min Rain = 0

Page generated in 0.1215 seconds.